<?xml version="1.0" encoding="UTF-8" standalone="no" ?>
<gpx xmlns="http://www.topografix.com/GPX/1/1" xmlns:xsi="http://www.w3.org/2001/XMLSchema-instance" xsi:schemaLocation="http://www.topografix.com/GPX/1/1 http://www.topografix.com/GPX/1/1/gpx.xsd" version="1.1" creator="VisuGPX - https://www.visugpx.com">
  <metadata>
    <name>sortie entrainement 11 Kms trail autour de Serres-Castet</name>
    <desc><![CDATA[430 m de dénivelé positif sur 11 kms de distance avec 2/3 de chemins avec profil vallonné ]]></desc>
  </metadata>
  <trk>
    <name><![CDATA[2014-09-20 09:16:00]]></name>
    <trkseg>
      <trkpt lat="43.38836" lon="-0.36297">
        <ele>294</ele>
        <time>2014-09-20T08:16:00Z</time>
      </trkpt>
      <trkpt lat="43.38837" lon="-0.36295">
        <ele>293</ele>
        <time>2014-09-20T08:16:03Z</time>
      </trkpt>
      <trkpt lat="43.3884" lon="-0.36286">
        <ele>293</ele>
        <time>2014-09-20T08:16:07Z</time>
      </trkpt>
      <trkpt lat="43.38843" lon="-0.36273">
        <ele>293</ele>
        <time>2014-09-20T08:16:11Z</time>
      </trkpt>
      <trkpt lat="43.38845" lon="-0.3626">
        <ele>292</ele>
        <time>2014-09-20T08:16:15Z</time>
      </trkpt>
      <trkpt lat="43.38848" lon="-0.36246">
        <ele>292</ele>
        <time>2014-09-20T08:16:19Z</time>
      </trkpt>
      <trkpt lat="43.3885" lon="-0.36232">
        <ele>292</ele>
        <time>2014-09-20T08:16:23Z</time>
      </trkpt>
      <trkpt lat="43.38853" lon="-0.36218">
        <ele>292</ele>
        <time>2014-09-20T08:16:27Z</time>
      </trkpt>
      <trkpt lat="43.38856" lon="-0.36206">
        <ele>292</ele>
        <time>2014-09-20T08:16:31Z</time>
      </trkpt>
      <trkpt lat="43.38859" lon="-0.36196">
        <ele>292</ele>
        <time>2014-09-20T08:16:35Z</time>
      </trkpt>
      <trkpt lat="43.38861" lon="-0.36184">
        <ele>292</ele>
        <time>2014-09-20T08:16:39Z</time>
      </trkpt>
      <trkpt lat="43.38863" lon="-0.36172">
        <ele>292</ele>
        <time>2014-09-20T08:16:43Z</time>
      </trkpt>
      <trkpt lat="43.38867" lon="-0.3616">
        <ele>291</ele>
        <time>2014-09-20T08:16:47Z</time>
      </trkpt>
      <trkpt lat="43.3887" lon="-0.36146">
        <ele>291</ele>
        <time>2014-09-20T08:16:51Z</time>
      </trkpt>
      <trkpt lat="43.38875" lon="-0.3613">
        <ele>291</ele>
        <time>2014-09-20T08:16:55Z</time>
      </trkpt>
      <trkpt lat="43.38882" lon="-0.36115">
        <ele>290</ele>
        <time>2014-09-20T08:16:59Z</time>
      </trkpt>
      <trkpt lat="43.38891" lon="-0.36102">
        <ele>289</ele>
        <time>2014-09-20T08:17:03Z</time>
      </trkpt>
      <trkpt lat="43.38899" lon="-0.36087">
        <ele>289</ele>
        <time>2014-09-20T08:17:07Z</time>
      </trkpt>
      <trkpt lat="43.38904" lon="-0.36071">
        <ele>288</ele>
        <time>2014-09-20T08:17:11Z</time>
      </trkpt>
      <trkpt lat="43.38906" lon="-0.36058">
        <ele>288</ele>
        <time>2014-09-20T08:17:15Z</time>
      </trkpt>
      <trkpt lat="43.3891" lon="-0.3605">
        <ele>288</ele>
        <time>2014-09-20T08:17:19Z</time>
      </trkpt>
      <trkpt lat="43.38913" lon="-0.36037">
        <ele>287</ele>
        <time>2014-09-20T08:17:23Z</time>
      </trkpt>
      <trkpt lat="43.38914" lon="-0.36016">
        <ele>287</ele>
        <time>2014-09-20T08:17:27Z</time>
      </trkpt>
      <trkpt lat="43.38912" lon="-0.35991">
        <ele>287</ele>
        <time>2014-09-20T08:17:31Z</time>
      </trkpt>
      <trkpt lat="43.38914" lon="-0.35979">
        <ele>286</ele>
        <time>2014-09-20T08:17:35Z</time>
      </trkpt>
      <trkpt lat="43.38919" lon="-0.35973">
        <ele>286</ele>
        <time>2014-09-20T08:17:39Z</time>
      </trkpt>
      <trkpt lat="43.38927" lon="-0.35969">
        <ele>286</ele>
        <time>2014-09-20T08:17:43Z</time>
      </trkpt>
      <trkpt lat="43.38936" lon="-0.35967">
        <ele>285</ele>
        <time>2014-09-20T08:17:47Z</time>
      </trkpt>
      <trkpt lat="43.38947" lon="-0.35966">
        <ele>285</ele>
        <time>2014-09-20T08:17:51Z</time>
      </trkpt>
      <trkpt lat="43.38958" lon="-0.35968">
        <ele>285</ele>
        <time>2014-09-20T08:17:55Z</time>
      </trkpt>
      <trkpt lat="43.38959" lon="-0.35966">
        <ele>286</ele>
        <time>2014-09-20T08:17:59Z</time>
      </trkpt>
      <trkpt lat="43.38951" lon="-0.35967">
        <ele>285</ele>
        <time>2014-09-20T08:18:03Z</time>
      </trkpt>
      <trkpt lat="43.38941" lon="-0.35965">
        <ele>285</ele>
        <time>2014-09-20T08:18:07Z</time>
      </trkpt>
      <trkpt lat="43.3893" lon="-0.35962">
        <ele>285</ele>
        <time>2014-09-20T08:18:11Z</time>
      </trkpt>
      <trkpt lat="43.38919" lon="-0.35958">
        <ele>285</ele>
        <time>2014-09-20T08:18:15Z</time>
      </trkpt>
      <trkpt lat="43.38908" lon="-0.3595">
        <ele>285</ele>
        <time>2014-09-20T08:18:19Z</time>
      </trkpt>
      <trkpt lat="43.38898" lon="-0.3594">
        <ele>285</ele>
        <time>2014-09-20T08:18:23Z</time>
      </trkpt>
      <trkpt lat="43.38889" lon="-0.35929">
        <ele>285</ele>
        <time>2014-09-20T08:18:27Z</time>
      </trkpt>
      <trkpt lat="43.38882" lon="-0.35919">
        <ele>284</ele>
        <time>2014-09-20T08:18:31Z</time>
      </trkpt>
      <trkpt lat="43.38873" lon="-0.3591">
        <ele>284</ele>
        <time>2014-09-20T08:18:35Z</time>
      </trkpt>
      <trkpt lat="43.38864" lon="-0.35899">
        <ele>284</ele>
        <time>2014-09-20T08:18:39Z</time>
      </trkpt>
      <trkpt lat="43.38855" lon="-0.35886">
        <ele>284</ele>
        <time>2014-09-20T08:18:43Z</time>
      </trkpt>
      <trkpt lat="43.38845" lon="-0.35876">
        <ele>285</ele>
        <time>2014-09-20T08:18:47Z</time>
      </trkpt>
      <trkpt lat="43.38835" lon="-0.35865">
        <ele>285</ele>
        <time>2014-09-20T08:18:51Z</time>
      </trkpt>
      <trkpt lat="43.38826" lon="-0.35855">
        <ele>285</ele>
        <time>2014-09-20T08:18:55Z</time>
      </trkpt>
      <trkpt lat="43.38816" lon="-0.35845">
        <ele>286</ele>
        <time>2014-09-20T08:18:59Z</time>
      </trkpt>
      <trkpt lat="43.38808" lon="-0.35835">
        <ele>286</ele>
        <time>2014-09-20T08:19:03Z</time>
      </trkpt>
      <trkpt lat="43.388" lon="-0.35823">
        <ele>286</ele>
        <time>2014-09-20T08:19:07Z</time>
      </trkpt>
      <trkpt lat="43.38792" lon="-0.35812">
        <ele>286</ele>
        <time>2014-09-20T08:19:11Z</time>
      </trkpt>
      <trkpt lat="43.38784" lon="-0.35803">
        <ele>286</ele>
        <time>2014-09-20T08:19:15Z</time>
      </trkpt>
      <trkpt lat="43.38775" lon="-0.35792">
        <ele>286</ele>
        <time>2014-09-20T08:19:19Z</time>
      </trkpt>
      <trkpt lat="43.38767" lon="-0.35781">
        <ele>286</ele>
        <time>2014-09-20T08:19:23Z</time>
      </trkpt>
      <trkpt lat="43.38759" lon="-0.3577">
        <ele>286</ele>
        <time>2014-09-20T08:19:27Z</time>
      </trkpt>
      <trkpt lat="43.38751" lon="-0.35759">
        <ele>286</ele>
        <time>2014-09-20T08:19:31Z</time>
      </trkpt>
      <trkpt lat="43.38744" lon="-0.3575">
        <ele>286</ele>
        <time>2014-09-20T08:19:35Z</time>
      </trkpt>
      <trkpt lat="43.38737" lon="-0.3574">
        <ele>287</ele>
        <time>2014-09-20T08:19:39Z</time>
      </trkpt>
      <trkpt lat="43.38736" lon="-0.35728">
        <ele>287</ele>
        <time>2014-09-20T08:19:43Z</time>
      </trkpt>
      <trkpt lat="43.38747" lon="-0.35722">
        <ele>287</ele>
        <time>2014-09-20T08:19:47Z</time>
      </trkpt>
      <trkpt lat="43.38757" lon="-0.35715">
        <ele>287</ele>
        <time>2014-09-20T08:19:51Z</time>
      </trkpt>
      <trkpt lat="43.38766" lon="-0.35705">
        <ele>287</ele>
        <time>2014-09-20T08:19:55Z</time>
      </trkpt>
      <trkpt lat="43.38773" lon="-0.35695">
        <ele>288</ele>
        <time>2014-09-20T08:19:59Z</time>
      </trkpt>
      <trkpt lat="43.38774" lon="-0.35682">
        <ele>287</ele>
        <time>2014-09-20T08:20:03Z</time>
      </trkpt>
      <trkpt lat="43.38776" lon="-0.35669">
        <ele>287</ele>
        <time>2014-09-20T08:20:07Z</time>
      </trkpt>
      <trkpt lat="43.3879" lon="-0.35658">
        <ele>287</ele>
        <time>2014-09-20T08:20:11Z</time>
      </trkpt>
      <trkpt lat="43.38801" lon="-0.35655">
        <ele>287</ele>
        <time>2014-09-20T08:20:15Z</time>
      </trkpt>
      <trkpt lat="43.38807" lon="-0.3565">
        <ele>287</ele>
        <time>2014-09-20T08:20:19Z</time>
      </trkpt>
      <trkpt lat="43.38812" lon="-0.35642">
        <ele>286</ele>
        <time>2014-09-20T08:20:23Z</time>
      </trkpt>
      <trkpt lat="43.38817" lon="-0.35632">
        <ele>286</ele>
        <time>2014-09-20T08:20:27Z</time>
      </trkpt>
      <trkpt lat="43.3882" lon="-0.35622">
        <ele>285</ele>
        <time>2014-09-20T08:20:31Z</time>
      </trkpt>
      <trkpt lat="43.38825" lon="-0.35612">
        <ele>285</ele>
        <time>2014-09-20T08:20:35Z</time>
      </trkpt>
      <trkpt lat="43.38834" lon="-0.35603">
        <ele>284</ele>
        <time>2014-09-20T08:20:39Z</time>
      </trkpt>
      <trkpt lat="43.38844" lon="-0.35598">
        <ele>284</ele>
        <time>2014-09-20T08:20:43Z</time>
      </trkpt>
      <trkpt lat="43.38855" lon="-0.35596">
        <ele>283</ele>
        <time>2014-09-20T08:20:47Z</time>
      </trkpt>
      <trkpt lat="43.38868" lon="-0.35595">
        <ele>283</ele>
        <time>2014-09-20T08:20:51Z</time>
      </trkpt>
      <trkpt lat="43.3888" lon="-0.35596">
        <ele>283</ele>
        <time>2014-09-20T08:20:55Z</time>
      </trkpt>
      <trkpt lat="43.38891" lon="-0.35597">
        <ele>282</ele>
        <time>2014-09-20T08:20:59Z</time>
      </trkpt>
      <trkpt lat="43.38904" lon="-0.35598">
        <ele>281</ele>
        <time>2014-09-20T08:21:03Z</time>
      </trkpt>
      <trkpt lat="43.38916" lon="-0.35593">
        <ele>279</ele>
        <time>2014-09-20T08:21:07Z</time>
      </trkpt>
      <trkpt lat="43.38933" lon="-0.35591">
        <ele>276</ele>
        <time>2014-09-20T08:21:11Z</time>
      </trkpt>
      <trkpt lat="43.38948" lon="-0.3559">
        <ele>272</ele>
        <time>2014-09-20T08:21:15Z</time>
      </trkpt>
      <trkpt lat="43.38959" lon="-0.35592">
        <ele>267</ele>
        <time>2014-09-20T08:21:19Z</time>
      </trkpt>
      <trkpt lat="43.38966" lon="-0.35591">
        <ele>262</ele>
        <time>2014-09-20T08:21:23Z</time>
      </trkpt>
      <trkpt lat="43.38967" lon="-0.35583">
        <ele>256</ele>
        <time>2014-09-20T08:21:27Z</time>
      </trkpt>
      <trkpt lat="43.38963" lon="-0.35575">
        <ele>250</ele>
        <time>2014-09-20T08:21:31Z</time>
      </trkpt>
      <trkpt lat="43.38964" lon="-0.35569">
        <ele>245</ele>
        <time>2014-09-20T08:21:35Z</time>
      </trkpt>
      <trkpt lat="43.38963" lon="-0.35564">
        <ele>239</ele>
        <time>2014-09-20T08:21:39Z</time>
      </trkpt>
      <trkpt lat="43.38961" lon="-0.35558">
        <ele>234</ele>
        <time>2014-09-20T08:21:43Z</time>
      </trkpt>
      <trkpt lat="43.38959" lon="-0.35548">
        <ele>231</ele>
        <time>2014-09-20T08:21:47Z</time>
      </trkpt>
      <trkpt lat="43.38952" lon="-0.35541">
        <ele>228</ele>
        <time>2014-09-20T08:21:51Z</time>
      </trkpt>
      <trkpt lat="43.38945" lon="-0.35534">
        <ele>226</ele>
        <time>2014-09-20T08:21:55Z</time>
      </trkpt>
      <trkpt lat="43.3894" lon="-0.35528">
        <ele>224</ele>
        <time>2014-09-20T08:21:59Z</time>
      </trkpt>
      <trkpt lat="43.38936" lon="-0.35523">
        <ele>222</ele>
        <time>2014-09-20T08:22:03Z</time>
      </trkpt>
      <trkpt lat="43.38931" lon="-0.35517">
        <ele>221</ele>
        <time>2014-09-20T08:22:07Z</time>
      </trkpt>
      <trkpt lat="43.38926" lon="-0.3551">
        <ele>219</ele>
        <time>2014-09-20T08:22:11Z</time>
      </trkpt>
      <trkpt lat="43.38929" lon="-0.35507">
        <ele>218</ele>
        <time>2014-09-20T08:22:15Z</time>
      </trkpt>
      <trkpt lat="43.38936" lon="-0.35508">
        <ele>217</ele>
        <time>2014-09-20T08:22:19Z</time>
      </trkpt>
      <trkpt lat="43.38942" lon="-0.3551">
        <ele>217</ele>
        <time>2014-09-20T08:22:23Z</time>
      </trkpt>
      <trkpt lat="43.38948" lon="-0.35513">
        <ele>217</ele>
        <time>2014-09-20T08:22:27Z</time>
      </trkpt>
      <trkpt lat="43.38953" lon="-0.35522">
        <ele>217</ele>
        <time>2014-09-20T08:22:31Z</time>
      </trkpt>
      <trkpt lat="43.3896" lon="-0.3553">
        <ele>216</ele>
        <time>2014-09-20T08:22:35Z</time>
      </trkpt>
      <trkpt lat="43.38967" lon="-0.35537">
        <ele>215</ele>
        <time>2014-09-20T08:22:39Z</time>
      </trkpt>
      <trkpt lat="43.38974" lon="-0.35545">
        <ele>214</ele>
        <time>2014-09-20T08:22:43Z</time>
      </trkpt>
      <trkpt lat="43.3898" lon="-0.35551">
        <ele>214</ele>
        <time>2014-09-20T08:22:47Z</time>
      </trkpt>
      <trkpt lat="43.38982" lon="-0.3555">
        <ele>213</ele>
        <time>2014-09-20T08:22:51Z</time>
      </trkpt>
      <trkpt lat="43.38981" lon="-0.35546">
        <ele>213</ele>
        <time>2014-09-20T08:22:55Z</time>
      </trkpt>
      <trkpt lat="43.38978" lon="-0.35536">
        <ele>212</ele>
        <time>2014-09-20T08:22:59Z</time>
      </trkpt>
      <trkpt lat="43.38974" lon="-0.35527">
        <ele>211</ele>
        <time>2014-09-20T08:23:03Z</time>
      </trkpt>
      <trkpt lat="43.38969" lon="-0.35516">
        <ele>210</ele>
        <time>2014-09-20T08:23:07Z</time>
      </trkpt>
      <trkpt lat="43.38966" lon="-0.35502">
        <ele>209</ele>
        <time>2014-09-20T08:23:11Z</time>
      </trkpt>
      <trkpt lat="43.38964" lon="-0.35488">
        <ele>207</ele>
        <time>2014-09-20T08:23:15Z</time>
      </trkpt>
      <trkpt lat="43.38961" lon="-0.35473">
        <ele>206</ele>
        <time>2014-09-20T08:23:19Z</time>
      </trkpt>
      <trkpt lat="43.38957" lon="-0.35457">
        <ele>205</ele>
        <time>2014-09-20T08:23:23Z</time>
      </trkpt>
      <trkpt lat="43.38956" lon="-0.35441">
        <ele>204</ele>
        <time>2014-09-20T08:23:27Z</time>
      </trkpt>
      <trkpt lat="43.38953" lon="-0.35428">
        <ele>202</ele>
        <time>2014-09-20T08:23:31Z</time>
      </trkpt>
      <trkpt lat="43.38951" lon="-0.35418">
        <ele>201</ele>
        <time>2014-09-20T08:23:35Z</time>
      </trkpt>
      <trkpt lat="43.38951" lon="-0.3541">
        <ele>199</ele>
        <time>2014-09-20T08:23:39Z</time>
      </trkpt>
      <trkpt lat="43.38947" lon="-0.35409">
        <ele>198</ele>
        <time>2014-09-20T08:23:43Z</time>
      </trkpt>
      <trkpt lat="43.38942" lon="-0.35417">
        <ele>197</ele>
        <time>2014-09-20T08:23:47Z</time>
      </trkpt>
      <trkpt lat="43.38936" lon="-0.35425">
        <ele>196</ele>
        <time>2014-09-20T08:23:51Z</time>
      </trkpt>
      <trkpt lat="43.3893" lon="-0.35431">
        <ele>195</ele>
        <time>2014-09-20T08:23:55Z</time>
      </trkpt>
      <trkpt lat="43.38924" lon="-0.35435">
        <ele>194</ele>
        <time>2014-09-20T08:23:59Z</time>
      </trkpt>
      <trkpt lat="43.38919" lon="-0.35438">
        <ele>193</ele>
        <time>2014-09-20T08:24:03Z</time>
      </trkpt>
      <trkpt lat="43.38913" lon="-0.35442">
        <ele>192</ele>
        <time>2014-09-20T08:24:07Z</time>
      </trkpt>
      <trkpt lat="43.38907" lon="-0.35445">
        <ele>191</ele>
        <time>2014-09-20T08:24:11Z</time>
      </trkpt>
      <trkpt lat="43.38901" lon="-0.3545">
        <ele>190</ele>
        <time>2014-09-20T08:24:15Z</time>
      </trkpt>
      <trkpt lat="43.38893" lon="-0.35452">
        <ele>190</ele>
        <time>2014-09-20T08:24:19Z</time>
      </trkpt>
      <trkpt lat="43.38888" lon="-0.35459">
        <ele>189</ele>
        <time>2014-09-20T08:24:23Z</time>
      </trkpt>
      <trkpt lat="43.38883" lon="-0.35461">
        <ele>189</ele>
        <time>2014-09-20T08:24:27Z</time>
      </trkpt>
      <trkpt lat="43.3888" lon="-0.35464">
        <ele>189</ele>
        <time>2014-09-20T08:24:31Z</time>
      </trkpt>
      <trkpt lat="43.38876" lon="-0.35468">
        <ele>188</ele>
        <time>2014-09-20T08:24:35Z</time>
      </trkpt>
      <trkpt lat="43.38871" lon="-0.35475">
        <ele>188</ele>
        <time>2014-09-20T08:24:39Z</time>
      </trkpt>
      <trkpt lat="43.38865" lon="-0.3548">
        <ele>187</ele>
        <time>2014-09-20T08:24:43Z</time>
      </trkpt>
      <trkpt lat="43.38857" lon="-0.3548">
        <ele>187</ele>
        <time>2014-09-20T08:24:47Z</time>
      </trkpt>
      <trkpt lat="43.38852" lon="-0.35484">
        <ele>188</ele>
        <time>2014-09-20T08:24:51Z</time>
      </trkpt>
      <trkpt lat="43.38848" lon="-0.35489">
        <ele>188</ele>
        <time>2014-09-20T08:24:55Z</time>
      </trkpt>
      <trkpt lat="43.38843" lon="-0.35493">
        <ele>188</ele>
        <time>2014-09-20T08:24:59Z</time>
      </trkpt>
      <trkpt lat="43.38838" lon="-0.35498">
        <ele>188</ele>
        <time>2014-09-20T08:25:03Z</time>
      </trkpt>
      <trkpt lat="43.38833" lon="-0.35506">
        <ele>188</ele>
        <time>2014-09-20T08:25:07Z</time>
      </trkpt>
      <trkpt lat="43.38829" lon="-0.35513">
        <ele>188</ele>
        <time>2014-09-20T08:25:11Z</time>
      </trkpt>
      <trkpt lat="43.38827" lon="-0.35521">
        <ele>189</ele>
        <time>2014-09-20T08:25:15Z</time>
      </trkpt>
      <trkpt lat="43.38824" lon="-0.35528">
        <ele>189</ele>
        <time>2014-09-20T08:25:19Z</time>
      </trkpt>
      <trkpt lat="43.38819" lon="-0.35535">
        <ele>189</ele>
        <time>2014-09-20T08:25:23Z</time>
      </trkpt>
      <trkpt lat="43.38815" lon="-0.35537">
        <ele>189</ele>
        <time>2014-09-20T08:25:27Z</time>
      </trkpt>
      <trkpt lat="43.38814" lon="-0.35538">
        <ele>189</ele>
        <time>2014-09-20T08:25:31Z</time>
      </trkpt>
      <trkpt lat="43.38824" lon="-0.35534">
        <ele>190</ele>
        <time>2014-09-20T08:25:35Z</time>
      </trkpt>
      <trkpt lat="43.38819" lon="-0.35533">
        <ele>191</ele>
        <time>2014-09-20T08:25:39Z</time>
      </trkpt>
      <trkpt lat="43.38815" lon="-0.3553">
        <ele>192</ele>
        <time>2014-09-20T08:25:43Z</time>
      </trkpt>
      <trkpt lat="43.38812" lon="-0.35523">
        <ele>192</ele>
        <time>2014-09-20T08:25:47Z</time>
      </trkpt>
      <trkpt lat="43.38805" lon="-0.35522">
        <ele>193</ele>
        <time>2014-09-20T08:25:51Z</time>
      </trkpt>
      <trkpt lat="43.38795" lon="-0.35522">
        <ele>195</ele>
        <time>2014-09-20T08:25:55Z</time>
      </trkpt>
      <trkpt lat="43.38786" lon="-0.35522">
        <ele>197</ele>
        <time>2014-09-20T08:25:59Z</time>
      </trkpt>
      <trkpt lat="43.38777" lon="-0.35524">
        <ele>199</ele>
        <time>2014-09-20T08:26:03Z</time>
      </trkpt>
      <trkpt lat="43.38769" lon="-0.35527">
        <ele>201</ele>
        <time>2014-09-20T08:26:07Z</time>
      </trkpt>
      <trkpt lat="43.38763" lon="-0.35527">
        <ele>203</ele>
        <time>2014-09-20T08:26:11Z</time>
      </trkpt>
      <trkpt lat="43.38759" lon="-0.35525">
        <ele>205</ele>
        <time>2014-09-20T08:26:15Z</time>
      </trkpt>
      <trkpt lat="43.38752" lon="-0.35519">
        <ele>208</ele>
        <time>2014-09-20T08:26:19Z</time>
      </trkpt>
      <trkpt lat="43.38744" lon="-0.35518">
        <ele>212</ele>
        <time>2014-09-20T08:26:23Z</time>
      </trkpt>
      <trkpt lat="43.38738" lon="-0.35518">
        <ele>215</ele>
        <time>2014-09-20T08:26:27Z</time>
      </trkpt>
      <trkpt lat="43.38732" lon="-0.35515">
        <ele>219</ele>
        <time>2014-09-20T08:26:31Z</time>
      </trkpt>
      <trkpt lat="43.38725" lon="-0.35512">
        <ele>221</ele>
        <time>2014-09-20T08:26:35Z</time>
      </trkpt>
      <trkpt lat="43.38715" lon="-0.35508">
        <ele>223</ele>
        <time>2014-09-20T08:26:39Z</time>
      </trkpt>
      <trkpt lat="43.387" lon="-0.35505">
        <ele>225</ele>
        <time>2014-09-20T08:26:43Z</time>
      </trkpt>
      <trkpt lat="43.38688" lon="-0.35497">
        <ele>227</ele>
        <time>2014-09-20T08:26:47Z</time>
      </trkpt>
      <trkpt lat="43.3868" lon="-0.35487">
        <ele>230</ele>
        <time>2014-09-20T08:26:51Z</time>
      </trkpt>
      <trkpt lat="43.38674" lon="-0.35469">
        <ele>233</ele>
        <time>2014-09-20T08:26:55Z</time>
      </trkpt>
      <trkpt lat="43.38671" lon="-0.35453">
        <ele>235</ele>
        <time>2014-09-20T08:26:59Z</time>
      </trkpt>
      <trkpt lat="43.3867" lon="-0.35437">
        <ele>238</ele>
        <time>2014-09-20T08:27:03Z</time>
      </trkpt>
      <trkpt lat="43.38668" lon="-0.35419">
        <ele>240</ele>
        <time>2014-09-20T08:27:07Z</time>
      </trkpt>
      <trkpt lat="43.38665" lon="-0.35404">
        <ele>243</ele>
        <time>2014-09-20T08:27:11Z</time>
      </trkpt>
      <trkpt lat="43.38661" lon="-0.35387">
        <ele>245</ele>
        <time>2014-09-20T08:27:15Z</time>
      </trkpt>
      <trkpt lat="43.38657" lon="-0.35372">
        <ele>247</ele>
        <time>2014-09-20T08:27:19Z</time>
      </trkpt>
      <trkpt lat="43.38654" lon="-0.35357">
        <ele>249</ele>
        <time>2014-09-20T08:27:23Z</time>
      </trkpt>
      <trkpt lat="43.38652" lon="-0.35341">
        <ele>251</ele>
        <time>2014-09-20T08:27:27Z</time>
      </trkpt>
      <trkpt lat="43.3865" lon="-0.35325">
        <ele>252</ele>
        <time>2014-09-20T08:27:31Z</time>
      </trkpt>
      <trkpt lat="43.38648" lon="-0.3531">
        <ele>254</ele>
        <time>2014-09-20T08:27:35Z</time>
      </trkpt>
      <trkpt lat="43.38644" lon="-0.35295">
        <ele>255</ele>
        <time>2014-09-20T08:27:39Z</time>
      </trkpt>
      <trkpt lat="43.38642" lon="-0.35278">
        <ele>256</ele>
        <time>2014-09-20T08:27:43Z</time>
      </trkpt>
      <trkpt lat="43.38642" lon="-0.35263">
        <ele>257</ele>
        <time>2014-09-20T08:27:47Z</time>
      </trkpt>
      <trkpt lat="43.38644" lon="-0.35249">
        <ele>258</ele>
        <time>2014-09-20T08:27:51Z</time>
      </trkpt>
      <trkpt lat="43.38646" lon="-0.35236">
        <ele>259</ele>
        <time>2014-09-20T08:27:55Z</time>
      </trkpt>
      <trkpt lat="43.38646" lon="-0.35224">
        <ele>260</ele>
        <time>2014-09-20T08:27:59Z</time>
      </trkpt>
      <trkpt lat="43.38648" lon="-0.35216">
        <ele>262</ele>
        <time>2014-09-20T08:28:03Z</time>
      </trkpt>
      <trkpt lat="43.38655" lon="-0.3521">
        <ele>263</ele>
        <time>2014-09-20T08:28:07Z</time>
      </trkpt>
      <trkpt lat="43.38669" lon="-0.35206">
        <ele>264</ele>
        <time>2014-09-20T08:28:11Z</time>
      </trkpt>
      <trkpt lat="43.38687" lon="-0.35201">
        <ele>265</ele>
        <time>2014-09-20T08:28:15Z</time>
      </trkpt>
      <trkpt lat="43.38706" lon="-0.35193">
        <ele>266</ele>
        <time>2014-09-20T08:28:19Z</time>
      </trkpt>
      <trkpt lat="43.38719" lon="-0.35185">
        <ele>267</ele>
        <time>2014-09-20T08:28:23Z</time>
      </trkpt>
      <trkpt lat="43.38729" lon="-0.35175">
        <ele>268</ele>
        <time>2014-09-20T08:28:27Z</time>
      </trkpt>
      <trkpt lat="43.38737" lon="-0.35164">
        <ele>268</ele>
        <time>2014-09-20T08:28:31Z</time>
      </trkpt>
      <trkpt lat="43.38747" lon="-0.35153">
        <ele>269</ele>
        <time>2014-09-20T08:28:35Z</time>
      </trkpt>
      <trkpt lat="43.38756" lon="-0.35142">
        <ele>269</ele>
        <time>2014-09-20T08:28:39Z</time>
      </trkpt>
      <trkpt lat="43.38764" lon="-0.35131">
        <ele>269</ele>
        <time>2014-09-20T08:28:43Z</time>
      </trkpt>
      <trkpt lat="43.38773" lon="-0.3512">
        <ele>269</ele>
        <time>2014-09-20T08:28:47Z</time>
      </trkpt>
      <trkpt lat="43.38781" lon="-0.35109">
        <ele>269</ele>
        <time>2014-09-20T08:28:51Z</time>
      </trkpt>
      <trkpt lat="43.38791" lon="-0.35097">
        <ele>269</ele>
        <time>2014-09-20T08:28:55Z</time>
      </trkpt>
      <trkpt lat="43.388" lon="-0.35087">
        <ele>269</ele>
        <time>2014-09-20T08:28:59Z</time>
      </trkpt>
      <trkpt lat="43.38811" lon="-0.35078">
        <ele>269</ele>
        <time>2014-09-20T08:29:03Z</time>
      </trkpt>
      <trkpt lat="43.38821" lon="-0.3507">
        <ele>269</ele>
        <time>2014-09-20T08:29:07Z</time>
      </trkpt>
      <trkpt lat="43.38831" lon="-0.3506">
        <ele>269</ele>
        <time>2014-09-20T08:29:11Z</time>
      </trkpt>
      <trkpt lat="43.38841" lon="-0.35049">
        <ele>269</ele>
        <time>2014-09-20T08:29:15Z</time>
      </trkpt>
      <trkpt lat="43.3885" lon="-0.35036">
        <ele>268</ele>
        <time>2014-09-20T08:29:19Z</time>
      </trkpt>
      <trkpt lat="43.38858" lon="-0.35023">
        <ele>268</ele>
        <time>2014-09-20T08:29:23Z</time>
      </trkpt>
      <trkpt lat="43.38865" lon="-0.35009">
        <ele>267</ele>
        <time>2014-09-20T08:29:27Z</time>
      </trkpt>
      <trkpt lat="43.38871" lon="-0.34996">
        <ele>266</ele>
        <time>2014-09-20T08:29:31Z</time>
      </trkpt>
      <trkpt lat="43.38882" lon="-0.34987">
        <ele>265</ele>
        <time>2014-09-20T08:29:35Z</time>
      </trkpt>
      <trkpt lat="43.38895" lon="-0.34984">
        <ele>264</ele>
        <time>2014-09-20T08:29:39Z</time>
      </trkpt>
      <trkpt lat="43.38909" lon="-0.34985">
        <ele>263</ele>
        <time>2014-09-20T08:29:43Z</time>
      </trkpt>
      <trkpt lat="43.38919" lon="-0.34986">
        <ele>262</ele>
        <time>2014-09-20T08:29:47Z</time>
      </trkpt>
      <trkpt lat="43.38928" lon="-0.34992">
        <ele>262</ele>
        <time>2014-09-20T08:29:51Z</time>
      </trkpt>
      <trkpt lat="43.38934" lon="-0.35004">
        <ele>261</ele>
        <time>2014-09-20T08:29:55Z</time>
      </trkpt>
      <trkpt lat="43.38938" lon="-0.35017">
        <ele>261</ele>
        <time>2014-09-20T08:29:59Z</time>
      </trkpt>
      <trkpt lat="43.38941" lon="-0.35034">
        <ele>260</ele>
        <time>2014-09-20T08:30:03Z</time>
      </trkpt>
      <trkpt lat="43.38944" lon="-0.35049">
        <ele>259</ele>
        <time>2014-09-20T08:30:07Z</time>
      </trkpt>
      <trkpt lat="43.38946" lon="-0.35066">
        <ele>258</ele>
        <time>2014-09-20T08:30:11Z</time>
      </trkpt>
      <trkpt lat="43.38947" lon="-0.35081">
        <ele>258</ele>
        <time>2014-09-20T08:30:15Z</time>
      </trkpt>
      <trkpt lat="43.38951" lon="-0.35096">
        <ele>257</ele>
        <time>2014-09-20T08:30:19Z</time>
      </trkpt>
      <trkpt lat="43.38957" lon="-0.3511">
        <ele>256</ele>
        <time>2014-09-20T08:30:23Z</time>
      </trkpt>
      <trkpt lat="43.38962" lon="-0.35124">
        <ele>255</ele>
        <time>2014-09-20T08:30:27Z</time>
      </trkpt>
      <trkpt lat="43.38968" lon="-0.35138">
        <ele>254</ele>
        <time>2014-09-20T08:30:31Z</time>
      </trkpt>
      <trkpt lat="43.38973" lon="-0.35153">
        <ele>253</ele>
        <time>2014-09-20T08:30:35Z</time>
      </trkpt>
      <trkpt lat="43.38977" lon="-0.35167">
        <ele>252</ele>
        <time>2014-09-20T08:30:39Z</time>
      </trkpt>
      <trkpt lat="43.3898" lon="-0.35179">
        <ele>250</ele>
        <time>2014-09-20T08:30:43Z</time>
      </trkpt>
      <trkpt lat="43.38982" lon="-0.35187">
        <ele>248</ele>
        <time>2014-09-20T08:30:47Z</time>
      </trkpt>
      <trkpt lat="43.38985" lon="-0.35197">
        <ele>247</ele>
        <time>2014-09-20T08:30:51Z</time>
      </trkpt>
      <trkpt lat="43.38986" lon="-0.35201">
        <ele>245</ele>
        <time>2014-09-20T08:30:55Z</time>
      </trkpt>
      <trkpt lat="43.38983" lon="-0.35194">
        <ele>244</ele>
        <time>2014-09-20T08:30:59Z</time>
      </trkpt>
      <trkpt lat="43.38982" lon="-0.35183">
        <ele>242</ele>
        <time>2014-09-20T08:31:03Z</time>
      </trkpt>
      <trkpt lat="43.38978" lon="-0.3517">
        <ele>240</ele>
        <time>2014-09-20T08:31:07Z</time>
      </trkpt>
      <trkpt lat="43.38974" lon="-0.35156">
        <ele>238</ele>
        <time>2014-09-20T08:31:11Z</time>
      </trkpt>
      <trkpt lat="43.38969" lon="-0.35144">
        <ele>236</ele>
        <time>2014-09-20T08:31:15Z</time>
      </trkpt>
      <trkpt lat="43.38964" lon="-0.35131">
        <ele>234</ele>
        <time>2014-09-20T08:31:19Z</time>
      </trkpt>
      <trkpt lat="43.3896" lon="-0.35118">
        <ele>233</ele>
        <time>2014-09-20T08:31:23Z</time>
      </trkpt>
      <trkpt lat="43.38956" lon="-0.35105">
        <ele>232</ele>
        <time>2014-09-20T08:31:27Z</time>
      </trkpt>
      <trkpt lat="43.38954" lon="-0.35092">
        <ele>232</ele>
        <time>2014-09-20T08:31:31Z</time>
      </trkpt>
      <trkpt lat="43.38953" lon="-0.35076">
        <ele>232</ele>
        <time>2014-09-20T08:31:35Z</time>
      </trkpt>
      <trkpt lat="43.38952" lon="-0.35062">
        <ele>231</ele>
        <time>2014-09-20T08:31:39Z</time>
      </trkpt>
      <trkpt lat="43.38951" lon="-0.35049">
        <ele>231</ele>
        <time>2014-09-20T08:31:43Z</time>
      </trkpt>
      <trkpt lat="43.38954" lon="-0.35037">
        <ele>231</ele>
        <time>2014-09-20T08:31:47Z</time>
      </trkpt>
      <trkpt lat="43.38959" lon="-0.3502">
        <ele>230</ele>
        <time>2014-09-20T08:31:51Z</time>
      </trkpt>
      <trkpt lat="43.38965" lon="-0.35007">
        <ele>229</ele>
        <time>2014-09-20T08:31:55Z</time>
      </trkpt>
      <trkpt lat="43.38973" lon="-0.34997">
        <ele>228</ele>
        <time>2014-09-20T08:31:59Z</time>
      </trkpt>
      <trkpt lat="43.38982" lon="-0.34987">
        <ele>226</ele>
        <time>2014-09-20T08:32:03Z</time>
      </trkpt>
      <trkpt lat="43.38992" lon="-0.34977">
        <ele>225</ele>
        <time>2014-09-20T08:32:07Z</time>
      </trkpt>
      <trkpt lat="43.39002" lon="-0.34969">
        <ele>224</ele>
        <time>2014-09-20T08:32:11Z</time>
      </trkpt>
      <trkpt lat="43.39002" lon="-0.34962">
        <ele>223</ele>
        <time>2014-09-20T08:32:15Z</time>
      </trkpt>
      <trkpt lat="43.38998" lon="-0.34958">
        <ele>222</ele>
        <time>2014-09-20T08:32:19Z</time>
      </trkpt>
      <trkpt lat="43.39002" lon="-0.34967">
        <ele>222</ele>
        <time>2014-09-20T08:32:23Z</time>
      </trkpt>
      <trkpt lat="43.3901" lon="-0.34976">
        <ele>222</ele>
        <time>2014-09-20T08:32:27Z</time>
      </trkpt>
      <trkpt lat="43.39016" lon="-0.3498">
        <ele>222</ele>
        <time>2014-09-20T08:32:31Z</time>
      </trkpt>
      <trkpt lat="43.39025" lon="-0.34986">
        <ele>222</ele>
        <time>2014-09-20T08:32:35Z</time>
      </trkpt>
      <trkpt lat="43.39038" lon="-0.34994">
        <ele>223</ele>
        <time>2014-09-20T08:32:39Z</time>
      </trkpt>
      <trkpt lat="43.39048" lon="-0.35003">
        <ele>223</ele>
        <time>2014-09-20T08:32:43Z</time>
      </trkpt>
      <trkpt lat="43.39057" lon="-0.35005">
        <ele>223</ele>
        <time>2014-09-20T08:32:47Z</time>
      </trkpt>
      <trkpt lat="43.39066" lon="-0.35004">
        <ele>222</ele>
        <time>2014-09-20T08:32:51Z</time>
      </trkpt>
      <trkpt lat="43.39078" lon="-0.35002">
        <ele>221</ele>
        <time>2014-09-20T08:32:55Z</time>
      </trkpt>
      <trkpt lat="43.39088" lon="-0.34998">
        <ele>220</ele>
        <time>2014-09-20T08:32:59Z</time>
      </trkpt>
      <trkpt lat="43.391" lon="-0.34991">
        <ele>219</ele>
        <time>2014-09-20T08:33:03Z</time>
      </trkpt>
      <trkpt lat="43.39111" lon="-0.34984">
        <ele>217</ele>
        <time>2014-09-20T08:33:07Z</time>
      </trkpt>
      <trkpt lat="43.39122" lon="-0.34978">
        <ele>216</ele>
        <time>2014-09-20T08:33:11Z</time>
      </trkpt>
      <trkpt lat="43.39134" lon="-0.34972">
        <ele>215</ele>
        <time>2014-09-20T08:33:15Z</time>
      </trkpt>
      <trkpt lat="43.39148" lon="-0.34966">
        <ele>214</ele>
        <time>2014-09-20T08:33:19Z</time>
      </trkpt>
      <trkpt lat="43.39163" lon="-0.3496">
        <ele>212</ele>
        <time>2014-09-20T08:33:23Z</time>
      </trkpt>
      <trkpt lat="43.39175" lon="-0.34954">
        <ele>210</ele>
        <time>2014-09-20T08:33:27Z</time>
      </trkpt>
      <trkpt lat="43.39188" lon="-0.34945">
        <ele>207</ele>
        <time>2014-09-20T08:33:31Z</time>
      </trkpt>
      <trkpt lat="43.39199" lon="-0.34935">
        <ele>205</ele>
        <time>2014-09-20T08:33:35Z</time>
      </trkpt>
      <trkpt lat="43.39207" lon="-0.34923">
        <ele>202</ele>
        <time>2014-09-20T08:33:39Z</time>
      </trkpt>
      <trkpt lat="43.39211" lon="-0.34909">
        <ele>200</ele>
        <time>2014-09-20T08:33:43Z</time>
      </trkpt>
      <trkpt lat="43.39213" lon="-0.34895">
        <ele>198</ele>
        <time>2014-09-20T08:33:47Z</time>
      </trkpt>
      <trkpt lat="43.39211" lon="-0.3488">
        <ele>197</ele>
        <time>2014-09-20T08:33:51Z</time>
      </trkpt>
      <trkpt lat="43.3921" lon="-0.34865">
        <ele>196</ele>
        <time>2014-09-20T08:33:55Z</time>
      </trkpt>
      <trkpt lat="43.3921" lon="-0.34848">
        <ele>195</ele>
        <time>2014-09-20T08:33:59Z</time>
      </trkpt>
      <trkpt lat="43.39212" lon="-0.3483">
        <ele>194</ele>
        <time>2014-09-20T08:34:03Z</time>
      </trkpt>
      <trkpt lat="43.39214" lon="-0.34813">
        <ele>194</ele>
        <time>2014-09-20T08:34:07Z</time>
      </trkpt>
      <trkpt lat="43.39208" lon="-0.348">
        <ele>194</ele>
        <time>2014-09-20T08:34:11Z</time>
      </trkpt>
      <trkpt lat="43.392" lon="-0.34789">
        <ele>194</ele>
        <time>2014-09-20T08:34:15Z</time>
      </trkpt>
      <trkpt lat="43.39191" lon="-0.34777">
        <ele>194</ele>
        <time>2014-09-20T08:34:19Z</time>
      </trkpt>
      <trkpt lat="43.39184" lon="-0.34765">
        <ele>194</ele>
        <time>2014-09-20T08:34:23Z</time>
      </trkpt>
      <trkpt lat="43.3918" lon="-0.34752">
        <ele>194</ele>
        <time>2014-09-20T08:34:27Z</time>
      </trkpt>
      <trkpt lat="43.39176" lon="-0.34737">
        <ele>193</ele>
        <time>2014-09-20T08:34:31Z</time>
      </trkpt>
      <trkpt lat="43.39171" lon="-0.34722">
        <ele>193</ele>
        <time>2014-09-20T08:34:35Z</time>
      </trkpt>
      <trkpt lat="43.39165" lon="-0.34708">
        <ele>192</ele>
        <time>2014-09-20T08:34:39Z</time>
      </trkpt>
      <trkpt lat="43.3916" lon="-0.34696">
        <ele>192</ele>
        <time>2014-09-20T08:34:43Z</time>
      </trkpt>
      <trkpt lat="43.39155" lon="-0.34686">
        <ele>192</ele>
        <time>2014-09-20T08:34:47Z</time>
      </trkpt>
      <trkpt lat="43.39151" lon="-0.34676">
        <ele>192</ele>
        <time>2014-09-20T08:34:51Z</time>
      </trkpt>
      <trkpt lat="43.39146" lon="-0.34666">
        <ele>192</ele>
        <time>2014-09-20T08:34:55Z</time>
      </trkpt>
      <trkpt lat="43.3914" lon="-0.34652">
        <ele>192</ele>
        <time>2014-09-20T08:34:59Z</time>
      </trkpt>
      <trkpt lat="43.39134" lon="-0.34638">
        <ele>192</ele>
        <time>2014-09-20T08:35:03Z</time>
      </trkpt>
      <trkpt lat="43.39127" lon="-0.34625">
        <ele>193</ele>
        <time>2014-09-20T08:35:07Z</time>
      </trkpt>
      <trkpt lat="43.39123" lon="-0.34609">
        <ele>194</ele>
        <time>2014-09-20T08:35:11Z</time>
      </trkpt>
      <trkpt lat="43.39121" lon="-0.34595">
        <ele>194</ele>
        <time>2014-09-20T08:35:15Z</time>
      </trkpt>
      <trkpt lat="43.39118" lon="-0.34583">
        <ele>195</ele>
        <time>2014-09-20T08:35:19Z</time>
      </trkpt>
      <trkpt lat="43.39109" lon="-0.34581">
        <ele>196</ele>
        <time>2014-09-20T08:35:23Z</time>
      </trkpt>
      <trkpt lat="43.39102" lon="-0.34587">
        <ele>197</ele>
        <time>2014-09-20T08:35:27Z</time>
      </trkpt>
      <trkpt lat="43.391" lon="-0.34598">
        <ele>198</ele>
        <time>2014-09-20T08:35:31Z</time>
      </trkpt>
      <trkpt lat="43.39099" lon="-0.3461">
        <ele>198</ele>
        <time>2014-09-20T08:35:35Z</time>
      </trkpt>
      <trkpt lat="43.39096" lon="-0.34623">
        <ele>198</ele>
        <time>2014-09-20T08:35:39Z</time>
      </trkpt>
      <trkpt lat="43.39093" lon="-0.34637">
        <ele>199</ele>
        <time>2014-09-20T08:35:43Z</time>
      </trkpt>
      <trkpt lat="43.39088" lon="-0.34644">
        <ele>200</ele>
        <time>2014-09-20T08:35:47Z</time>
      </trkpt>
      <trkpt lat="43.3908" lon="-0.34644">
        <ele>201</ele>
        <time>2014-09-20T08:35:51Z</time>
      </trkpt>
      <trkpt lat="43.39073" lon="-0.34638">
        <ele>202</ele>
        <time>2014-09-20T08:35:55Z</time>
      </trkpt>
      <trkpt lat="43.39067" lon="-0.34632">
        <ele>204</ele>
        <time>2014-09-20T08:35:59Z</time>
      </trkpt>
      <trkpt lat="43.39062" lon="-0.34626">
        <ele>205</ele>
        <time>2014-09-20T08:36:03Z</time>
      </trkpt>
      <trkpt lat="43.39058" lon="-0.34618">
        <ele>207</ele>
        <time>2014-09-20T08:36:07Z</time>
      </trkpt>
      <trkpt lat="43.39054" lon="-0.34608">
        <ele>209</ele>
        <time>2014-09-20T08:36:11Z</time>
      </trkpt>
      <trkpt lat="43.39049" lon="-0.34594">
        <ele>210</ele>
        <time>2014-09-20T08:36:15Z</time>
      </trkpt>
      <trkpt lat="43.39046" lon="-0.34581">
        <ele>212</ele>
        <time>2014-09-20T08:36:19Z</time>
      </trkpt>
      <trkpt lat="43.39044" lon="-0.34568">
        <ele>213</ele>
        <time>2014-09-20T08:36:23Z</time>
      </trkpt>
      <trkpt lat="43.39044" lon="-0.34554">
        <ele>214</ele>
        <time>2014-09-20T08:36:27Z</time>
      </trkpt>
      <trkpt lat="43.3905" lon="-0.34542">
        <ele>214</ele>
        <time>2014-09-20T08:36:31Z</time>
      </trkpt>
      <trkpt lat="43.3906" lon="-0.34534">
        <ele>215</ele>
        <time>2014-09-20T08:36:35Z</time>
      </trkpt>
      <trkpt lat="43.39071" lon="-0.34528">
        <ele>216</ele>
        <time>2014-09-20T08:36:39Z</time>
      </trkpt>
      <trkpt lat="43.39082" lon="-0.34523">
        <ele>216</ele>
        <time>2014-09-20T08:36:43Z</time>
      </trkpt>
      <trkpt lat="43.39092" lon="-0.34515">
        <ele>217</ele>
        <time>2014-09-20T08:36:47Z</time>
      </trkpt>
      <trkpt lat="43.39102" lon="-0.34509">
        <ele>217</ele>
        <time>2014-09-20T08:36:51Z</time>
      </trkpt>
      <trkpt lat="43.39112" lon="-0.34503">
        <ele>218</ele>
        <time>2014-09-20T08:36:55Z</time>
      </trkpt>
      <trkpt lat="43.39122" lon="-0.34498">
        <ele>218</ele>
        <time>2014-09-20T08:36:59Z</time>
      </trkpt>
      <trkpt lat="43.39133" lon="-0.34492">
        <ele>218</ele>
        <time>2014-09-20T08:37:03Z</time>
      </trkpt>
      <trkpt lat="43.39143" lon="-0.34486">
        <ele>218</ele>
        <time>2014-09-20T08:37:07Z</time>
      </trkpt>
      <trkpt lat="43.39153" lon="-0.3448">
        <ele>217</ele>
        <time>2014-09-20T08:37:11Z</time>
      </trkpt>
      <trkpt lat="43.39163" lon="-0.34475">
        <ele>217</ele>
        <time>2014-09-20T08:37:15Z</time>
      </trkpt>
      <trkpt lat="43.39174" lon="-0.34469">
        <ele>217</ele>
        <time>2014-09-20T08:37:19Z</time>
      </trkpt>
      <trkpt lat="43.39187" lon="-0.34464">
        <ele>216</ele>
        <time>2014-09-20T08:37:23Z</time>
      </trkpt>
      <trkpt lat="43.39198" lon="-0.34458">
        <ele>216</ele>
        <time>2014-09-20T08:37:27Z</time>
      </trkpt>
      <trkpt lat="43.39208" lon="-0.34452">
        <ele>215</ele>
        <time>2014-09-20T08:37:31Z</time>
      </trkpt>
      <trkpt lat="43.39219" lon="-0.34447">
        <ele>215</ele>
        <time>2014-09-20T08:37:35Z</time>
      </trkpt>
      <trkpt lat="43.3923" lon="-0.34441">
        <ele>215</ele>
        <time>2014-09-20T08:37:39Z</time>
      </trkpt>
      <trkpt lat="43.3924" lon="-0.34433">
        <ele>215</ele>
        <time>2014-09-20T08:37:43Z</time>
      </trkpt>
      <trkpt lat="43.39251" lon="-0.34427">
        <ele>215</ele>
        <time>2014-09-20T08:37:47Z</time>
      </trkpt>
      <trkpt lat="43.39261" lon="-0.34421">
        <ele>215</ele>
        <time>2014-09-20T08:37:51Z</time>
      </trkpt>
      <trkpt lat="43.39271" lon="-0.34415">
        <ele>215</ele>
        <time>2014-09-20T08:37:55Z</time>
      </trkpt>
      <trkpt lat="43.39282" lon="-0.34409">
        <ele>215</ele>
        <time>2014-09-20T08:37:59Z</time>
      </trkpt>
      <trkpt lat="43.39292" lon="-0.34403">
        <ele>215</ele>
        <time>2014-09-20T08:38:03Z</time>
      </trkpt>
      <trkpt lat="43.39303" lon="-0.34397">
        <ele>216</ele>
        <time>2014-09-20T08:38:07Z</time>
      </trkpt>
      <trkpt lat="43.39314" lon="-0.34391">
        <ele>216</ele>
        <time>2014-09-20T08:38:11Z</time>
      </trkpt>
      <trkpt lat="43.39326" lon="-0.34384">
        <ele>216</ele>
        <time>2014-09-20T08:38:15Z</time>
      </trkpt>
      <trkpt lat="43.39337" lon="-0.34379">
        <ele>216</ele>
        <time>2014-09-20T08:38:19Z</time>
      </trkpt>
      <trkpt lat="43.39346" lon="-0.34369">
        <ele>215</ele>
        <time>2014-09-20T08:38:23Z</time>
      </trkpt>
      <trkpt lat="43.39349" lon="-0.34356">
        <ele>215</ele>
        <time>2014-09-20T08:38:27Z</time>
      </trkpt>
      <trkpt lat="43.39346" lon="-0.34342">
        <ele>215</ele>
        <time>2014-09-20T08:38:31Z</time>
      </trkpt>
      <trkpt lat="43.3934" lon="-0.34329">
        <ele>214</ele>
        <time>2014-09-20T08:38:35Z</time>
      </trkpt>
      <trkpt lat="43.39335" lon="-0.34318">
        <ele>214</ele>
        <time>2014-09-20T08:38:39Z</time>
      </trkpt>
      <trkpt lat="43.39329" lon="-0.34304">
        <ele>213</ele>
        <time>2014-09-20T08:38:43Z</time>
      </trkpt>
      <trkpt lat="43.39324" lon="-0.34293">
        <ele>213</ele>
        <time>2014-09-20T08:38:47Z</time>
      </trkpt>
      <trkpt lat="43.3932" lon="-0.3428">
        <ele>212</ele>
        <time>2014-09-20T08:38:51Z</time>
      </trkpt>
      <trkpt lat="43.39317" lon="-0.34262">
        <ele>212</ele>
        <time>2014-09-20T08:38:55Z</time>
      </trkpt>
      <trkpt lat="43.39315" lon="-0.34244">
        <ele>212</ele>
        <time>2014-09-20T08:38:59Z</time>
      </trkpt>
      <trkpt lat="43.39315" lon="-0.34228">
        <ele>211</ele>
        <time>2014-09-20T08:39:03Z</time>
      </trkpt>
      <trkpt lat="43.39316" lon="-0.3421">
        <ele>211</ele>
        <time>2014-09-20T08:39:07Z</time>
      </trkpt>
      <trkpt lat="43.39318" lon="-0.34195">
        <ele>211</ele>
        <time>2014-09-20T08:39:11Z</time>
      </trkpt>
      <trkpt lat="43.39319" lon="-0.3418">
        <ele>210</ele>
        <time>2014-09-20T08:39:15Z</time>
      </trkpt>
      <trkpt lat="43.3932" lon="-0.34164">
        <ele>210</ele>
        <time>2014-09-20T08:39:19Z</time>
      </trkpt>
      <trkpt lat="43.39321" lon="-0.34148">
        <ele>209</ele>
        <time>2014-09-20T08:39:23Z</time>
      </trkpt>
      <trkpt lat="43.39323" lon="-0.34131">
        <ele>209</ele>
        <time>2014-09-20T08:39:27Z</time>
      </trkpt>
      <trkpt lat="43.39327" lon="-0.34115">
        <ele>209</ele>
        <time>2014-09-20T08:39:31Z</time>
      </trkpt>
      <trkpt lat="43.3933" lon="-0.34099">
        <ele>209</ele>
        <time>2014-09-20T08:39:35Z</time>
      </trkpt>
      <trkpt lat="43.39331" lon="-0.34084">
        <ele>209</ele>
        <time>2014-09-20T08:39:39Z</time>
      </trkpt>
      <trkpt lat="43.39332" lon="-0.34069">
        <ele>209</ele>
        <time>2014-09-20T08:39:43Z</time>
      </trkpt>
      <trkpt lat="43.3933" lon="-0.34055">
        <ele>209</ele>
        <time>2014-09-20T08:39:47Z</time>
      </trkpt>
      <trkpt lat="43.39321" lon="-0.34047">
        <ele>209</ele>
        <time>2014-09-20T08:39:51Z</time>
      </trkpt>
      <trkpt lat="43.39308" lon="-0.3405">
        <ele>209</ele>
        <time>2014-09-20T08:39:55Z</time>
      </trkpt>
      <trkpt lat="43.39297" lon="-0.34057">
        <ele>209</ele>
        <time>2014-09-20T08:39:59Z</time>
      </trkpt>
      <trkpt lat="43.39286" lon="-0.34063">
        <ele>210</ele>
        <time>2014-09-20T08:40:03Z</time>
      </trkpt>
      <trkpt lat="43.39274" lon="-0.34067">
        <ele>210</ele>
        <time>2014-09-20T08:40:07Z</time>
      </trkpt>
      <trkpt lat="43.39263" lon="-0.34068">
        <ele>210</ele>
        <time>2014-09-20T08:40:11Z</time>
      </trkpt>
      <trkpt lat="43.39252" lon="-0.34064">
        <ele>209</ele>
        <time>2014-09-20T08:40:15Z</time>
      </trkpt>
      <trkpt lat="43.39241" lon="-0.34059">
        <ele>209</ele>
        <time>2014-09-20T08:40:19Z</time>
      </trkpt>
      <trkpt lat="43.39229" lon="-0.34052">
        <ele>208</ele>
        <time>2014-09-20T08:40:23Z</time>
      </trkpt>
      <trkpt lat="43.39218" lon="-0.34045">
        <ele>208</ele>
        <time>2014-09-20T08:40:27Z</time>
      </trkpt>
      <trkpt lat="43.39208" lon="-0.34034">
        <ele>208</ele>
        <time>2014-09-20T08:40:31Z</time>
      </trkpt>
      <trkpt lat="43.39199" lon="-0.34023">
        <ele>208</ele>
        <time>2014-09-20T08:40:35Z</time>
      </trkpt>
      <trkpt lat="43.3919" lon="-0.34012">
        <ele>208</ele>
        <time>2014-09-20T08:40:39Z</time>
      </trkpt>
      <trkpt lat="43.39181" lon="-0.34001">
        <ele>209</ele>
        <time>2014-09-20T08:40:43Z</time>
      </trkpt>
      <trkpt lat="43.39173" lon="-0.33991">
        <ele>208</ele>
        <time>2014-09-20T08:40:47Z</time>
      </trkpt>
      <trkpt lat="43.39165" lon="-0.33978">
        <ele>208</ele>
        <time>2014-09-20T08:40:51Z</time>
      </trkpt>
      <trkpt lat="43.39156" lon="-0.33967">
        <ele>208</ele>
        <time>2014-09-20T08:40:55Z</time>
      </trkpt>
      <trkpt lat="43.39149" lon="-0.33955">
        <ele>207</ele>
        <time>2014-09-20T08:40:59Z</time>
      </trkpt>
      <trkpt lat="43.39142" lon="-0.33941">
        <ele>207</ele>
        <time>2014-09-20T08:41:03Z</time>
      </trkpt>
      <trkpt lat="43.39135" lon="-0.33928">
        <ele>207</ele>
        <time>2014-09-20T08:41:07Z</time>
      </trkpt>
      <trkpt lat="43.3913" lon="-0.33916">
        <ele>208</ele>
        <time>2014-09-20T08:41:11Z</time>
      </trkpt>
      <trkpt lat="43.39127" lon="-0.33903">
        <ele>209</ele>
        <time>2014-09-20T08:41:15Z</time>
      </trkpt>
      <trkpt lat="43.39126" lon="-0.3389">
        <ele>209</ele>
        <time>2014-09-20T08:41:19Z</time>
      </trkpt>
      <trkpt lat="43.39123" lon="-0.33876">
        <ele>209</ele>
        <time>2014-09-20T08:41:23Z</time>
      </trkpt>
      <trkpt lat="43.39118" lon="-0.33865">
        <ele>209</ele>
        <time>2014-09-20T08:41:27Z</time>
      </trkpt>
      <trkpt lat="43.39112" lon="-0.33852">
        <ele>209</ele>
        <time>2014-09-20T08:41:31Z</time>
      </trkpt>
      <trkpt lat="43.39106" lon="-0.3384">
        <ele>208</ele>
        <time>2014-09-20T08:41:35Z</time>
      </trkpt>
      <trkpt lat="43.39099" lon="-0.33828">
        <ele>207</ele>
        <time>2014-09-20T08:41:39Z</time>
      </trkpt>
      <trkpt lat="43.39094" lon="-0.33814">
        <ele>206</ele>
        <time>2014-09-20T08:41:43Z</time>
      </trkpt>
      <trkpt lat="43.39088" lon="-0.33802">
        <ele>205</ele>
        <time>2014-09-20T08:41:47Z</time>
      </trkpt>
      <trkpt lat="43.39083" lon="-0.3379">
        <ele>204</ele>
        <time>2014-09-20T08:41:51Z</time>
      </trkpt>
      <trkpt lat="43.39073" lon="-0.33775">
        <ele>203</ele>
        <time>2014-09-20T08:41:55Z</time>
      </trkpt>
      <trkpt lat="43.39064" lon="-0.33763">
        <ele>202</ele>
        <time>2014-09-20T08:41:59Z</time>
      </trkpt>
      <trkpt lat="43.39059" lon="-0.33749">
        <ele>201</ele>
        <time>2014-09-20T08:42:03Z</time>
      </trkpt>
      <trkpt lat="43.39053" lon="-0.33733">
        <ele>201</ele>
        <time>2014-09-20T08:42:07Z</time>
      </trkpt>
      <trkpt lat="43.39047" lon="-0.33716">
        <ele>201</ele>
        <time>2014-09-20T08:42:11Z</time>
      </trkpt>
      <trkpt lat="43.3904" lon="-0.33701">
        <ele>202</ele>
        <time>2014-09-20T08:42:15Z</time>
      </trkpt>
      <trkpt lat="43.39036" lon="-0.33687">
        <ele>202</ele>
        <time>2014-09-20T08:42:19Z</time>
      </trkpt>
      <trkpt lat="43.39032" lon="-0.33672">
        <ele>203</ele>
        <time>2014-09-20T08:42:23Z</time>
      </trkpt>
      <trkpt lat="43.3903" lon="-0.33657">
        <ele>203</ele>
        <time>2014-09-20T08:42:27Z</time>
      </trkpt>
      <trkpt lat="43.39028" lon="-0.33643">
        <ele>203</ele>
        <time>2014-09-20T08:42:31Z</time>
      </trkpt>
      <trkpt lat="43.39028" lon="-0.33628">
        <ele>203</ele>
        <time>2014-09-20T08:42:35Z</time>
      </trkpt>
      <trkpt lat="43.39027" lon="-0.33613">
        <ele>204</ele>
        <time>2014-09-20T08:42:39Z</time>
      </trkpt>
      <trkpt lat="43.39028" lon="-0.33598">
        <ele>204</ele>
        <time>2014-09-20T08:42:43Z</time>
      </trkpt>
      <trkpt lat="43.3903" lon="-0.33582">
        <ele>205</ele>
        <time>2014-09-20T08:42:47Z</time>
      </trkpt>
      <trkpt lat="43.39039" lon="-0.33563">
        <ele>207</ele>
        <time>2014-09-20T08:42:51Z</time>
      </trkpt>
      <trkpt lat="43.39044" lon="-0.3355">
        <ele>210</ele>
        <time>2014-09-20T08:42:55Z</time>
      </trkpt>
      <trkpt lat="43.39051" lon="-0.33539">
        <ele>213</ele>
        <time>2014-09-20T08:42:59Z</time>
      </trkpt>
      <trkpt lat="43.39059" lon="-0.33531">
        <ele>215</ele>
        <time>2014-09-20T08:43:03Z</time>
      </trkpt>
      <trkpt lat="43.39065" lon="-0.33522">
        <ele>217</ele>
        <time>2014-09-20T08:43:07Z</time>
      </trkpt>
      <trkpt lat="43.39071" lon="-0.33514">
        <ele>217</ele>
        <time>2014-09-20T08:43:11Z</time>
      </trkpt>
      <trkpt lat="43.39076" lon="-0.33505">
        <ele>218</ele>
        <time>2014-09-20T08:43:15Z</time>
      </trkpt>
      <trkpt lat="43.39082" lon="-0.33497">
        <ele>219</ele>
        <time>2014-09-20T08:43:19Z</time>
      </trkpt>
      <trkpt lat="43.39088" lon="-0.33491">
        <ele>220</ele>
        <time>2014-09-20T08:43:23Z</time>
      </trkpt>
      <trkpt lat="43.39095" lon="-0.33486">
        <ele>220</ele>
        <time>2014-09-20T08:43:27Z</time>
      </trkpt>
      <trkpt lat="43.39104" lon="-0.33483">
        <ele>221</ele>
        <time>2014-09-20T08:43:31Z</time>
      </trkpt>
      <trkpt lat="43.39115" lon="-0.33478">
        <ele>221</ele>
        <time>2014-09-20T08:43:35Z</time>
      </trkpt>
      <trkpt lat="43.39122" lon="-0.33469">
        <ele>222</ele>
        <time>2014-09-20T08:43:39Z</time>
      </trkpt>
      <trkpt lat="43.3913" lon="-0.33461">
        <ele>222</ele>
        <time>2014-09-20T08:43:43Z</time>
      </trkpt>
      <trkpt lat="43.39137" lon="-0.33452">
        <ele>223</ele>
        <time>2014-09-20T08:43:47Z</time>
      </trkpt>
      <trkpt lat="43.39145" lon="-0.33445">
        <ele>224</ele>
        <time>2014-09-20T08:43:51Z</time>
      </trkpt>
      <trkpt lat="43.39151" lon="-0.33438">
        <ele>225</ele>
        <time>2014-09-20T08:43:55Z</time>
      </trkpt>
      <trkpt lat="43.39157" lon="-0.33429">
        <ele>225</ele>
        <time>2014-09-20T08:43:59Z</time>
      </trkpt>
      <trkpt lat="43.39166" lon="-0.33423">
        <ele>226</ele>
        <time>2014-09-20T08:44:03Z</time>
      </trkpt>
      <trkpt lat="43.39172" lon="-0.33424">
        <ele>227</ele>
        <time>2014-09-20T08:44:07Z</time>
      </trkpt>
      <trkpt lat="43.39179" lon="-0.33433">
        <ele>228</ele>
        <time>2014-09-20T08:44:11Z</time>
      </trkpt>
      <trkpt lat="43.39187" lon="-0.33439">
        <ele>228</ele>
        <time>2014-09-20T08:44:15Z</time>
      </trkpt>
      <trkpt lat="43.39195" lon="-0.33445">
        <ele>229</ele>
        <time>2014-09-20T08:44:19Z</time>
      </trkpt>
      <trkpt lat="43.39201" lon="-0.33451">
        <ele>230</ele>
        <time>2014-09-20T08:44:23Z</time>
      </trkpt>
      <trkpt lat="43.39207" lon="-0.33456">
        <ele>231</ele>
        <time>2014-09-20T08:44:27Z</time>
      </trkpt>
      <trkpt lat="43.39213" lon="-0.33463">
        <ele>232</ele>
        <time>2014-09-20T08:44:31Z</time>
      </trkpt>
      <trkpt lat="43.39219" lon="-0.33469">
        <ele>232</ele>
        <time>2014-09-20T08:44:35Z</time>
      </trkpt>
      <trkpt lat="43.39224" lon="-0.33476">
        <ele>233</ele>
        <time>2014-09-20T08:44:39Z</time>
      </trkpt>
      <trkpt lat="43.39229" lon="-0.33484">
        <ele>234</ele>
        <time>2014-09-20T08:44:43Z</time>
      </trkpt>
      <trkpt lat="43.39234" lon="-0.33493">
        <ele>235</ele>
        <time>2014-09-20T08:44:47Z</time>
      </trkpt>
      <trkpt lat="43.39237" lon="-0.33502">
        <ele>236</ele>
        <time>2014-09-20T08:44:51Z</time>
      </trkpt>
      <trkpt lat="43.3924" lon="-0.33511">
        <ele>237</ele>
        <time>2014-09-20T08:44:55Z</time>
      </trkpt>
      <trkpt lat="43.39242" lon="-0.3352">
        <ele>238</ele>
        <time>2014-09-20T08:44:59Z</time>
      </trkpt>
      <trkpt lat="43.39244" lon="-0.3353">
        <ele>239</ele>
        <time>2014-09-20T08:45:03Z</time>
      </trkpt>
      <trkpt lat="43.39247" lon="-0.33538">
        <ele>240</ele>
        <time>2014-09-20T08:45:07Z</time>
      </trkpt>
      <trkpt lat="43.39253" lon="-0.33542">
        <ele>241</ele>
        <time>2014-09-20T08:45:11Z</time>
      </trkpt>
      <trkpt lat="43.39261" lon="-0.33544">
        <ele>243</ele>
        <time>2014-09-20T08:45:15Z</time>
      </trkpt>
      <trkpt lat="43.39267" lon="-0.33544">
        <ele>243</ele>
        <time>2014-09-20T08:45:19Z</time>
      </trkpt>
      <trkpt lat="43.39272" lon="-0.33542">
        <ele>244</ele>
        <time>2014-09-20T08:45:23Z</time>
      </trkpt>
      <trkpt lat="43.39277" lon="-0.33539">
        <ele>244</ele>
        <time>2014-09-20T08:45:27Z</time>
      </trkpt>
      <trkpt lat="43.39284" lon="-0.33536">
        <ele>245</ele>
        <time>2014-09-20T08:45:31Z</time>
      </trkpt>
      <trkpt lat="43.39292" lon="-0.33533">
        <ele>245</ele>
        <time>2014-09-20T08:45:35Z</time>
      </trkpt>
      <trkpt lat="43.39298" lon="-0.33529">
        <ele>245</ele>
        <time>2014-09-20T08:45:39Z</time>
      </trkpt>
      <trkpt lat="43.39303" lon="-0.33526">
        <ele>246</ele>
        <time>2014-09-20T08:45:43Z</time>
      </trkpt>
      <trkpt lat="43.3931" lon="-0.33524">
        <ele>247</ele>
        <time>2014-09-20T08:45:47Z</time>
      </trkpt>
      <trkpt lat="43.39318" lon="-0.33521">
        <ele>248</ele>
        <time>2014-09-20T08:45:51Z</time>
      </trkpt>
      <trkpt lat="43.39326" lon="-0.33518">
        <ele>249</ele>
        <time>2014-09-20T08:45:55Z</time>
      </trkpt>
      <trkpt lat="43.39332" lon="-0.33515">
        <ele>250</ele>
        <time>2014-09-20T08:45:59Z</time>
      </trkpt>
      <trkpt lat="43.3934" lon="-0.33513">
        <ele>251</ele>
        <time>2014-09-20T08:46:03Z</time>
      </trkpt>
      <trkpt lat="43.39351" lon="-0.3351">
        <ele>252</ele>
        <time>2014-09-20T08:46:07Z</time>
      </trkpt>
      <trkpt lat="43.39361" lon="-0.33507">
        <ele>253</ele>
        <time>2014-09-20T08:46:11Z</time>
      </trkpt>
      <trkpt lat="43.39369" lon="-0.33505">
        <ele>254</ele>
        <time>2014-09-20T08:46:15Z</time>
      </trkpt>
      <trkpt lat="43.39377" lon="-0.33502">
        <ele>255</ele>
        <time>2014-09-20T08:46:19Z</time>
      </trkpt>
      <trkpt lat="43.39385" lon="-0.33499">
        <ele>256</ele>
        <time>2014-09-20T08:46:23Z</time>
      </trkpt>
      <trkpt lat="43.39391" lon="-0.33496">
        <ele>257</ele>
        <time>2014-09-20T08:46:27Z</time>
      </trkpt>
      <trkpt lat="43.39397" lon="-0.33495">
        <ele>257</ele>
        <time>2014-09-20T08:46:31Z</time>
      </trkpt>
      <trkpt lat="43.39399" lon="-0.33492">
        <ele>258</ele>
        <time>2014-09-20T08:46:35Z</time>
      </trkpt>
      <trkpt lat="43.39401" lon="-0.33488">
        <ele>259</ele>
        <time>2014-09-20T08:46:39Z</time>
      </trkpt>
      <trkpt lat="43.39404" lon="-0.33483">
        <ele>259</ele>
        <time>2014-09-20T08:46:43Z</time>
      </trkpt>
      <trkpt lat="43.39411" lon="-0.33477">
        <ele>260</ele>
        <time>2014-09-20T08:46:47Z</time>
      </trkpt>
      <trkpt lat="43.39415" lon="-0.3347">
        <ele>261</ele>
        <time>2014-09-20T08:46:51Z</time>
      </trkpt>
      <trkpt lat="43.39416" lon="-0.33462">
        <ele>261</ele>
        <time>2014-09-20T08:46:55Z</time>
      </trkpt>
      <trkpt lat="43.39417" lon="-0.33457">
        <ele>262</ele>
        <time>2014-09-20T08:46:59Z</time>
      </trkpt>
      <trkpt lat="43.39419" lon="-0.33451">
        <ele>262</ele>
        <time>2014-09-20T08:47:03Z</time>
      </trkpt>
      <trkpt lat="43.39424" lon="-0.33444">
        <ele>263</ele>
        <time>2014-09-20T08:47:07Z</time>
      </trkpt>
      <trkpt lat="43.3943" lon="-0.33439">
        <ele>264</ele>
        <time>2014-09-20T08:47:11Z</time>
      </trkpt>
      <trkpt lat="43.39437" lon="-0.33433">
        <ele>264</ele>
        <time>2014-09-20T08:47:15Z</time>
      </trkpt>
      <trkpt lat="43.39442" lon="-0.33426">
        <ele>265</ele>
        <time>2014-09-20T08:47:19Z</time>
      </trkpt>
      <trkpt lat="43.39448" lon="-0.3342">
        <ele>265</ele>
        <time>2014-09-20T08:47:23Z</time>
      </trkpt>
      <trkpt lat="43.39453" lon="-0.33414">
        <ele>266</ele>
        <time>2014-09-20T08:47:27Z</time>
      </trkpt>
      <trkpt lat="43.39459" lon="-0.33405">
        <ele>266</ele>
        <time>2014-09-20T08:47:31Z</time>
      </trkpt>
      <trkpt lat="43.39465" lon="-0.33396">
        <ele>266</ele>
        <time>2014-09-20T08:47:35Z</time>
      </trkpt>
      <trkpt lat="43.39471" lon="-0.33389">
        <ele>267</ele>
        <time>2014-09-20T08:47:39Z</time>
      </trkpt>
      <trkpt lat="43.39477" lon="-0.33384">
        <ele>268</ele>
        <time>2014-09-20T08:47:43Z</time>
      </trkpt>
      <trkpt lat="43.39485" lon="-0.33378">
        <ele>268</ele>
        <time>2014-09-20T08:47:47Z</time>
      </trkpt>
      <trkpt lat="43.39491" lon="-0.3337">
        <ele>269</ele>
        <time>2014-09-20T08:47:51Z</time>
      </trkpt>
      <trkpt lat="43.39496" lon="-0.33365">
        <ele>269</ele>
        <time>2014-09-20T08:47:55Z</time>
      </trkpt>
      <trkpt lat="43.395" lon="-0.33359">
        <ele>269</ele>
        <time>2014-09-20T08:47:59Z</time>
      </trkpt>
      <trkpt lat="43.39505" lon="-0.3335">
        <ele>270</ele>
        <time>2014-09-20T08:48:03Z</time>
      </trkpt>
      <trkpt lat="43.39512" lon="-0.33336">
        <ele>271</ele>
        <time>2014-09-20T08:48:07Z</time>
      </trkpt>
      <trkpt lat="43.39518" lon="-0.33325">
        <ele>273</ele>
        <time>2014-09-20T08:48:11Z</time>
      </trkpt>
      <trkpt lat="43.39524" lon="-0.33317">
        <ele>274</ele>
        <time>2014-09-20T08:48:15Z</time>
      </trkpt>
      <trkpt lat="43.3953" lon="-0.3331">
        <ele>276</ele>
        <time>2014-09-20T08:48:19Z</time>
      </trkpt>
      <trkpt lat="43.39536" lon="-0.33301">
        <ele>277</ele>
        <time>2014-09-20T08:48:23Z</time>
      </trkpt>
      <trkpt lat="43.39542" lon="-0.3329">
        <ele>278</ele>
        <time>2014-09-20T08:48:27Z</time>
      </trkpt>
      <trkpt lat="43.39546" lon="-0.33278">
        <ele>279</ele>
        <time>2014-09-20T08:48:31Z</time>
      </trkpt>
      <trkpt lat="43.39548" lon="-0.33266">
        <ele>280</ele>
        <time>2014-09-20T08:48:35Z</time>
      </trkpt>
      <trkpt lat="43.39551" lon="-0.33254">
        <ele>281</ele>
        <time>2014-09-20T08:48:39Z</time>
      </trkpt>
      <trkpt lat="43.39556" lon="-0.33245">
        <ele>282</ele>
        <time>2014-09-20T08:48:43Z</time>
      </trkpt>
      <trkpt lat="43.39556" lon="-0.33234">
        <ele>284</ele>
        <time>2014-09-20T08:48:47Z</time>
      </trkpt>
      <trkpt lat="43.39554" lon="-0.33221">
        <ele>285</ele>
        <time>2014-09-20T08:48:51Z</time>
      </trkpt>
      <trkpt lat="43.39553" lon="-0.33206">
        <ele>285</ele>
        <time>2014-09-20T08:48:55Z</time>
      </trkpt>
      <trkpt lat="43.39555" lon="-0.33192">
        <ele>286</ele>
        <time>2014-09-20T08:48:59Z</time>
      </trkpt>
      <trkpt lat="43.39555" lon="-0.33179">
        <ele>286</ele>
        <time>2014-09-20T08:49:03Z</time>
      </trkpt>
      <trkpt lat="43.39553" lon="-0.33166">
        <ele>285</ele>
        <time>2014-09-20T08:49:07Z</time>
      </trkpt>
      <trkpt lat="43.39548" lon="-0.33154">
        <ele>284</ele>
        <time>2014-09-20T08:49:11Z</time>
      </trkpt>
      <trkpt lat="43.39544" lon="-0.33141">
        <ele>283</ele>
        <time>2014-09-20T08:49:15Z</time>
      </trkpt>
      <trkpt lat="43.39542" lon="-0.33128">
        <ele>282</ele>
        <time>2014-09-20T08:49:19Z</time>
      </trkpt>
      <trkpt lat="43.39537" lon="-0.33116">
        <ele>282</ele>
        <time>2014-09-20T08:49:23Z</time>
      </trkpt>
      <trkpt lat="43.39532" lon="-0.33105">
        <ele>281</ele>
        <time>2014-09-20T08:49:27Z</time>
      </trkpt>
      <trkpt lat="43.39528" lon="-0.33094">
        <ele>281</ele>
        <time>2014-09-20T08:49:31Z</time>
      </trkpt>
      <trkpt lat="43.39524" lon="-0.33083">
        <ele>281</ele>
        <time>2014-09-20T08:49:35Z</time>
      </trkpt>
      <trkpt lat="43.39521" lon="-0.33072">
        <ele>281</ele>
        <time>2014-09-20T08:49:39Z</time>
      </trkpt>
      <trkpt lat="43.39518" lon="-0.33059">
        <ele>280</ele>
        <time>2014-09-20T08:49:43Z</time>
      </trkpt>
      <trkpt lat="43.39513" lon="-0.33047">
        <ele>279</ele>
        <time>2014-09-20T08:49:47Z</time>
      </trkpt>
      <trkpt lat="43.39507" lon="-0.33033">
        <ele>277</ele>
        <time>2014-09-20T08:49:51Z</time>
      </trkpt>
      <trkpt lat="43.39501" lon="-0.33026">
        <ele>276</ele>
        <time>2014-09-20T08:49:55Z</time>
      </trkpt>
      <trkpt lat="43.39493" lon="-0.33031">
        <ele>275</ele>
        <time>2014-09-20T08:49:59Z</time>
      </trkpt>
      <trkpt lat="43.39485" lon="-0.33038">
        <ele>275</ele>
        <time>2014-09-20T08:50:03Z</time>
      </trkpt>
      <trkpt lat="43.39477" lon="-0.33046">
        <ele>275</ele>
        <time>2014-09-20T08:50:07Z</time>
      </trkpt>
      <trkpt lat="43.39469" lon="-0.33056">
        <ele>274</ele>
        <time>2014-09-20T08:50:11Z</time>
      </trkpt>
      <trkpt lat="43.39461" lon="-0.33067">
        <ele>274</ele>
        <time>2014-09-20T08:50:15Z</time>
      </trkpt>
      <trkpt lat="43.39451" lon="-0.33075">
        <ele>274</ele>
        <time>2014-09-20T08:50:19Z</time>
      </trkpt>
      <trkpt lat="43.39443" lon="-0.33083">
        <ele>274</ele>
        <time>2014-09-20T08:50:23Z</time>
      </trkpt>
      <trkpt lat="43.39435" lon="-0.33093">
        <ele>274</ele>
        <time>2014-09-20T08:50:27Z</time>
      </trkpt>
      <trkpt lat="43.39426" lon="-0.33102">
        <ele>274</ele>
        <time>2014-09-20T08:50:31Z</time>
      </trkpt>
      <trkpt lat="43.39418" lon="-0.33112">
        <ele>273</ele>
        <time>2014-09-20T08:50:35Z</time>
      </trkpt>
      <trkpt lat="43.3941" lon="-0.33122">
        <ele>273</ele>
        <time>2014-09-20T08:50:39Z</time>
      </trkpt>
      <trkpt lat="43.39403" lon="-0.33134">
        <ele>272</ele>
        <time>2014-09-20T08:50:43Z</time>
      </trkpt>
      <trkpt lat="43.39396" lon="-0.33144">
        <ele>271</ele>
        <time>2014-09-20T08:50:47Z</time>
      </trkpt>
      <trkpt lat="43.39388" lon="-0.33155">
        <ele>271</ele>
        <time>2014-09-20T08:50:51Z</time>
      </trkpt>
      <trkpt lat="43.3938" lon="-0.33166">
        <ele>270</ele>
        <time>2014-09-20T08:50:55Z</time>
      </trkpt>
      <trkpt lat="43.39372" lon="-0.33177">
        <ele>270</ele>
        <time>2014-09-20T08:50:59Z</time>
      </trkpt>
      <trkpt lat="43.39365" lon="-0.33188">
        <ele>270</ele>
        <time>2014-09-20T08:51:03Z</time>
      </trkpt>
      <trkpt lat="43.39359" lon="-0.33199">
        <ele>269</ele>
        <time>2014-09-20T08:51:07Z</time>
      </trkpt>
      <trkpt lat="43.39353" lon="-0.33209">
        <ele>268</ele>
        <time>2014-09-20T08:51:11Z</time>
      </trkpt>
      <trkpt lat="43.39344" lon="-0.33216">
        <ele>266</ele>
        <time>2014-09-20T08:51:15Z</time>
      </trkpt>
      <trkpt lat="43.39333" lon="-0.33218">
        <ele>264</ele>
        <time>2014-09-20T08:51:19Z</time>
      </trkpt>
      <trkpt lat="43.39324" lon="-0.33221">
        <ele>263</ele>
        <time>2014-09-20T08:51:23Z</time>
      </trkpt>
      <trkpt lat="43.39315" lon="-0.33228">
        <ele>261</ele>
        <time>2014-09-20T08:51:27Z</time>
      </trkpt>
      <trkpt lat="43.39305" lon="-0.33232">
        <ele>260</ele>
        <time>2014-09-20T08:51:31Z</time>
      </trkpt>
      <trkpt lat="43.39296" lon="-0.33237">
        <ele>259</ele>
        <time>2014-09-20T08:51:35Z</time>
      </trkpt>
      <trkpt lat="43.39287" lon="-0.33243">
        <ele>257</ele>
        <time>2014-09-20T08:51:39Z</time>
      </trkpt>
      <trkpt lat="43.39279" lon="-0.33247">
        <ele>256</ele>
        <time>2014-09-20T08:51:43Z</time>
      </trkpt>
      <trkpt lat="43.39272" lon="-0.33243">
        <ele>255</ele>
        <time>2014-09-20T08:51:47Z</time>
      </trkpt>
      <trkpt lat="43.39266" lon="-0.33234">
        <ele>253</ele>
        <time>2014-09-20T08:51:51Z</time>
      </trkpt>
      <trkpt lat="43.39265" lon="-0.3323">
        <ele>252</ele>
        <time>2014-09-20T08:51:55Z</time>
      </trkpt>
      <trkpt lat="43.39267" lon="-0.33233">
        <ele>250</ele>
        <time>2014-09-20T08:51:59Z</time>
      </trkpt>
      <trkpt lat="43.39271" lon="-0.33241">
        <ele>249</ele>
        <time>2014-09-20T08:52:03Z</time>
      </trkpt>
      <trkpt lat="43.39275" lon="-0.33248">
        <ele>247</ele>
        <time>2014-09-20T08:52:07Z</time>
      </trkpt>
      <trkpt lat="43.39278" lon="-0.33255">
        <ele>246</ele>
        <time>2014-09-20T08:52:11Z</time>
      </trkpt>
      <trkpt lat="43.39284" lon="-0.33264">
        <ele>244</ele>
        <time>2014-09-20T08:52:15Z</time>
      </trkpt>
      <trkpt lat="43.39286" lon="-0.33277">
        <ele>243</ele>
        <time>2014-09-20T08:52:19Z</time>
      </trkpt>
      <trkpt lat="43.3929" lon="-0.33287">
        <ele>243</ele>
        <time>2014-09-20T08:52:23Z</time>
      </trkpt>
      <trkpt lat="43.39297" lon="-0.33291">
        <ele>242</ele>
        <time>2014-09-20T08:52:27Z</time>
      </trkpt>
      <trkpt lat="43.39304" lon="-0.33291">
        <ele>242</ele>
        <time>2014-09-20T08:52:30Z</time>
      </trkpt>
      <trkpt lat="43.39292" lon="-0.3329">
        <ele>243</ele>
        <time>2014-09-20T08:52:46Z</time>
      </trkpt>
      <trkpt lat="43.39292" lon="-0.33289">
        <ele>243</ele>
        <time>2014-09-20T08:52:47Z</time>
      </trkpt>
      <trkpt lat="43.39289" lon="-0.3328">
        <ele>243</ele>
        <time>2014-09-20T08:52:51Z</time>
      </trkpt>
      <trkpt lat="43.39286" lon="-0.3327">
        <ele>244</ele>
        <time>2014-09-20T08:52:55Z</time>
      </trkpt>
      <trkpt lat="43.39282" lon="-0.33259">
        <ele>244</ele>
        <time>2014-09-20T08:52:59Z</time>
      </trkpt>
      <trkpt lat="43.39279" lon="-0.33249">
        <ele>244</ele>
        <time>2014-09-20T08:53:03Z</time>
      </trkpt>
      <trkpt lat="43.39282" lon="-0.33241">
        <ele>245</ele>
        <time>2014-09-20T08:53:07Z</time>
      </trkpt>
      <trkpt lat="43.39288" lon="-0.33237">
        <ele>245</ele>
        <time>2014-09-20T08:53:11Z</time>
      </trkpt>
      <trkpt lat="43.39295" lon="-0.33232">
        <ele>245</ele>
        <time>2014-09-20T08:53:15Z</time>
      </trkpt>
      <trkpt lat="43.39303" lon="-0.33228">
        <ele>246</ele>
        <time>2014-09-20T08:53:19Z</time>
      </trkpt>
      <trkpt lat="43.39311" lon="-0.33226">
        <ele>246</ele>
        <time>2014-09-20T08:53:23Z</time>
      </trkpt>
      <trkpt lat="43.39316" lon="-0.33222">
        <ele>247</ele>
        <time>2014-09-20T08:53:27Z</time>
      </trkpt>
      <trkpt lat="43.39321" lon="-0.33218">
        <ele>249</ele>
        <time>2014-09-20T08:53:31Z</time>
      </trkpt>
      <trkpt lat="43.39327" lon="-0.33215">
        <ele>250</ele>
        <time>2014-09-20T08:53:35Z</time>
      </trkpt>
      <trkpt lat="43.39332" lon="-0.33214">
        <ele>251</ele>
        <time>2014-09-20T08:53:39Z</time>
      </trkpt>
      <trkpt lat="43.39338" lon="-0.33214">
        <ele>252</ele>
        <time>2014-09-20T08:53:43Z</time>
      </trkpt>
      <trkpt lat="43.39344" lon="-0.33212">
        <ele>254</ele>
        <time>2014-09-20T08:53:47Z</time>
      </trkpt>
      <trkpt lat="43.39349" lon="-0.33208">
        <ele>255</ele>
        <time>2014-09-20T08:53:51Z</time>
      </trkpt>
      <trkpt lat="43.39354" lon="-0.33202">
        <ele>256</ele>
        <time>2014-09-20T08:53:55Z</time>
      </trkpt>
      <trkpt lat="43.39358" lon="-0.33196">
        <ele>258</ele>
        <time>2014-09-20T08:53:59Z</time>
      </trkpt>
      <trkpt lat="43.39364" lon="-0.33189">
        <ele>260</ele>
        <time>2014-09-20T08:54:03Z</time>
      </trkpt>
      <trkpt lat="43.39372" lon="-0.33182">
        <ele>262</ele>
        <time>2014-09-20T08:54:07Z</time>
      </trkpt>
      <trkpt lat="43.39375" lon="-0.33177">
        <ele>264</ele>
        <time>2014-09-20T08:54:11Z</time>
      </trkpt>
      <trkpt lat="43.39379" lon="-0.33171">
        <ele>265</ele>
        <time>2014-09-20T08:54:15Z</time>
      </trkpt>
      <trkpt lat="43.39384" lon="-0.33165">
        <ele>267</ele>
        <time>2014-09-20T08:54:19Z</time>
      </trkpt>
      <trkpt lat="43.39389" lon="-0.3316">
        <ele>269</ele>
        <time>2014-09-20T08:54:23Z</time>
      </trkpt>
      <trkpt lat="43.39392" lon="-0.33153">
        <ele>270</ele>
        <time>2014-09-20T08:54:27Z</time>
      </trkpt>
      <trkpt lat="43.39396" lon="-0.33147">
        <ele>272</ele>
        <time>2014-09-20T08:54:31Z</time>
      </trkpt>
      <trkpt lat="43.39401" lon="-0.33141">
        <ele>273</ele>
        <time>2014-09-20T08:54:35Z</time>
      </trkpt>
      <trkpt lat="43.39406" lon="-0.33135">
        <ele>274</ele>
        <time>2014-09-20T08:54:39Z</time>
      </trkpt>
      <trkpt lat="43.39412" lon="-0.33129">
        <ele>275</ele>
        <time>2014-09-20T08:54:43Z</time>
      </trkpt>
      <trkpt lat="43.39418" lon="-0.33123">
        <ele>276</ele>
        <time>2014-09-20T08:54:47Z</time>
      </trkpt>
      <trkpt lat="43.39422" lon="-0.33117">
        <ele>278</ele>
        <time>2014-09-20T08:54:51Z</time>
      </trkpt>
      <trkpt lat="43.39426" lon="-0.33109">
        <ele>279</ele>
        <time>2014-09-20T08:54:55Z</time>
      </trkpt>
      <trkpt lat="43.39431" lon="-0.33103">
        <ele>280</ele>
        <time>2014-09-20T08:54:59Z</time>
      </trkpt>
      <trkpt lat="43.39435" lon="-0.33096">
        <ele>281</ele>
        <time>2014-09-20T08:55:03Z</time>
      </trkpt>
      <trkpt lat="43.39445" lon="-0.3309">
        <ele>282</ele>
        <time>2014-09-20T08:55:07Z</time>
      </trkpt>
      <trkpt lat="43.39454" lon="-0.33084">
        <ele>283</ele>
        <time>2014-09-20T08:55:11Z</time>
      </trkpt>
      <trkpt lat="43.39461" lon="-0.33077">
        <ele>284</ele>
        <time>2014-09-20T08:55:15Z</time>
      </trkpt>
      <trkpt lat="43.39468" lon="-0.33071">
        <ele>285</ele>
        <time>2014-09-20T08:55:19Z</time>
      </trkpt>
      <trkpt lat="43.39471" lon="-0.33065">
        <ele>286</ele>
        <time>2014-09-20T08:55:23Z</time>
      </trkpt>
      <trkpt lat="43.39473" lon="-0.33059">
        <ele>288</ele>
        <time>2014-09-20T08:55:27Z</time>
      </trkpt>
      <trkpt lat="43.39475" lon="-0.33052">
        <ele>289</ele>
        <time>2014-09-20T08:55:31Z</time>
      </trkpt>
      <trkpt lat="43.3948" lon="-0.33044">
        <ele>290</ele>
        <time>2014-09-20T08:55:35Z</time>
      </trkpt>
      <trkpt lat="43.39484" lon="-0.33037">
        <ele>291</ele>
        <time>2014-09-20T08:55:39Z</time>
      </trkpt>
      <trkpt lat="43.39488" lon="-0.33033">
        <ele>292</ele>
        <time>2014-09-20T08:55:43Z</time>
      </trkpt>
      <trkpt lat="43.39493" lon="-0.33027">
        <ele>293</ele>
        <time>2014-09-20T08:55:47Z</time>
      </trkpt>
      <trkpt lat="43.39494" lon="-0.33018">
        <ele>294</ele>
        <time>2014-09-20T08:55:51Z</time>
      </trkpt>
      <trkpt lat="43.39494" lon="-0.33007">
        <ele>295</ele>
        <time>2014-09-20T08:55:55Z</time>
      </trkpt>
      <trkpt lat="43.39491" lon="-0.32994">
        <ele>296</ele>
        <time>2014-09-20T08:55:59Z</time>
      </trkpt>
      <trkpt lat="43.39487" lon="-0.32982">
        <ele>296</ele>
        <time>2014-09-20T08:56:03Z</time>
      </trkpt>
      <trkpt lat="43.39485" lon="-0.32971">
        <ele>295</ele>
        <time>2014-09-20T08:56:07Z</time>
      </trkpt>
      <trkpt lat="43.39485" lon="-0.32959">
        <ele>294</ele>
        <time>2014-09-20T08:56:11Z</time>
      </trkpt>
      <trkpt lat="43.39484" lon="-0.32947">
        <ele>293</ele>
        <time>2014-09-20T08:56:15Z</time>
      </trkpt>
      <trkpt lat="43.39481" lon="-0.32934">
        <ele>293</ele>
        <time>2014-09-20T08:56:19Z</time>
      </trkpt>
      <trkpt lat="43.39476" lon="-0.3292">
        <ele>292</ele>
        <time>2014-09-20T08:56:23Z</time>
      </trkpt>
      <trkpt lat="43.39475" lon="-0.32907">
        <ele>291</ele>
        <time>2014-09-20T08:56:27Z</time>
      </trkpt>
      <trkpt lat="43.39474" lon="-0.32893">
        <ele>289</ele>
        <time>2014-09-20T08:56:31Z</time>
      </trkpt>
      <trkpt lat="43.39472" lon="-0.32879">
        <ele>288</ele>
        <time>2014-09-20T08:56:35Z</time>
      </trkpt>
      <trkpt lat="43.39469" lon="-0.32867">
        <ele>287</ele>
        <time>2014-09-20T08:56:39Z</time>
      </trkpt>
      <trkpt lat="43.39466" lon="-0.32855">
        <ele>286</ele>
        <time>2014-09-20T08:56:43Z</time>
      </trkpt>
      <trkpt lat="43.39464" lon="-0.32842">
        <ele>285</ele>
        <time>2014-09-20T08:56:47Z</time>
      </trkpt>
      <trkpt lat="43.39462" lon="-0.3283">
        <ele>285</ele>
        <time>2014-09-20T08:56:51Z</time>
      </trkpt>
      <trkpt lat="43.39458" lon="-0.32821">
        <ele>285</ele>
        <time>2014-09-20T08:56:55Z</time>
      </trkpt>
      <trkpt lat="43.39453" lon="-0.32811">
        <ele>286</ele>
        <time>2014-09-20T08:56:59Z</time>
      </trkpt>
      <trkpt lat="43.39449" lon="-0.32799">
        <ele>286</ele>
        <time>2014-09-20T08:57:03Z</time>
      </trkpt>
      <trkpt lat="43.39446" lon="-0.32785">
        <ele>287</ele>
        <time>2014-09-20T08:57:07Z</time>
      </trkpt>
      <trkpt lat="43.39443" lon="-0.32773">
        <ele>287</ele>
        <time>2014-09-20T08:57:11Z</time>
      </trkpt>
      <trkpt lat="43.39439" lon="-0.32764">
        <ele>288</ele>
        <time>2014-09-20T08:57:15Z</time>
      </trkpt>
      <trkpt lat="43.39433" lon="-0.32754">
        <ele>289</ele>
        <time>2014-09-20T08:57:19Z</time>
      </trkpt>
      <trkpt lat="43.39428" lon="-0.32742">
        <ele>289</ele>
        <time>2014-09-20T08:57:23Z</time>
      </trkpt>
      <trkpt lat="43.39424" lon="-0.3273">
        <ele>290</ele>
        <time>2014-09-20T08:57:27Z</time>
      </trkpt>
      <trkpt lat="43.39421" lon="-0.32716">
        <ele>290</ele>
        <time>2014-09-20T08:57:31Z</time>
      </trkpt>
      <trkpt lat="43.39419" lon="-0.32702">
        <ele>290</ele>
        <time>2014-09-20T08:57:35Z</time>
      </trkpt>
      <trkpt lat="43.39418" lon="-0.32689">
        <ele>291</ele>
        <time>2014-09-20T08:57:39Z</time>
      </trkpt>
      <trkpt lat="43.39417" lon="-0.32677">
        <ele>291</ele>
        <time>2014-09-20T08:57:43Z</time>
      </trkpt>
      <trkpt lat="43.39414" lon="-0.32662">
        <ele>291</ele>
        <time>2014-09-20T08:57:47Z</time>
      </trkpt>
      <trkpt lat="43.39413" lon="-0.32645">
        <ele>292</ele>
        <time>2014-09-20T08:57:51Z</time>
      </trkpt>
      <trkpt lat="43.3941" lon="-0.32631">
        <ele>293</ele>
        <time>2014-09-20T08:57:55Z</time>
      </trkpt>
      <trkpt lat="43.39408" lon="-0.32618">
        <ele>294</ele>
        <time>2014-09-20T08:57:59Z</time>
      </trkpt>
      <trkpt lat="43.39407" lon="-0.32607">
        <ele>294</ele>
        <time>2014-09-20T08:58:03Z</time>
      </trkpt>
      <trkpt lat="43.39408" lon="-0.32597">
        <ele>295</ele>
        <time>2014-09-20T08:58:07Z</time>
      </trkpt>
      <trkpt lat="43.39412" lon="-0.3258">
        <ele>296</ele>
        <time>2014-09-20T08:58:11Z</time>
      </trkpt>
      <trkpt lat="43.39415" lon="-0.32566">
        <ele>297</ele>
        <time>2014-09-20T08:58:15Z</time>
      </trkpt>
      <trkpt lat="43.39417" lon="-0.32554">
        <ele>297</ele>
        <time>2014-09-20T08:58:19Z</time>
      </trkpt>
      <trkpt lat="43.39418" lon="-0.32541">
        <ele>298</ele>
        <time>2014-09-20T08:58:23Z</time>
      </trkpt>
      <trkpt lat="43.39419" lon="-0.3253">
        <ele>298</ele>
        <time>2014-09-20T08:58:27Z</time>
      </trkpt>
      <trkpt lat="43.39422" lon="-0.32518">
        <ele>299</ele>
        <time>2014-09-20T08:58:31Z</time>
      </trkpt>
      <trkpt lat="43.39427" lon="-0.32508">
        <ele>299</ele>
        <time>2014-09-20T08:58:35Z</time>
      </trkpt>
      <trkpt lat="43.39432" lon="-0.32498">
        <ele>300</ele>
        <time>2014-09-20T08:58:39Z</time>
      </trkpt>
      <trkpt lat="43.39435" lon="-0.3249">
        <ele>300</ele>
        <time>2014-09-20T08:58:43Z</time>
      </trkpt>
      <trkpt lat="43.39439" lon="-0.3248">
        <ele>300</ele>
        <time>2014-09-20T08:58:47Z</time>
      </trkpt>
      <trkpt lat="43.39441" lon="-0.32469">
        <ele>300</ele>
        <time>2014-09-20T08:58:51Z</time>
      </trkpt>
      <trkpt lat="43.39444" lon="-0.32459">
        <ele>301</ele>
        <time>2014-09-20T08:58:55Z</time>
      </trkpt>
      <trkpt lat="43.39448" lon="-0.32446">
        <ele>301</ele>
        <time>2014-09-20T08:58:59Z</time>
      </trkpt>
      <trkpt lat="43.39452" lon="-0.32436">
        <ele>302</ele>
        <time>2014-09-20T08:59:03Z</time>
      </trkpt>
      <trkpt lat="43.39456" lon="-0.32422">
        <ele>302</ele>
        <time>2014-09-20T08:59:07Z</time>
      </trkpt>
      <trkpt lat="43.39455" lon="-0.32409">
        <ele>302</ele>
        <time>2014-09-20T08:59:11Z</time>
      </trkpt>
      <trkpt lat="43.39449" lon="-0.3241">
        <ele>301</ele>
        <time>2014-09-20T08:59:15Z</time>
      </trkpt>
      <trkpt lat="43.3944" lon="-0.32416">
        <ele>300</ele>
        <time>2014-09-20T08:59:19Z</time>
      </trkpt>
      <trkpt lat="43.39432" lon="-0.32421">
        <ele>299</ele>
        <time>2014-09-20T08:59:23Z</time>
      </trkpt>
      <trkpt lat="43.39424" lon="-0.32426">
        <ele>298</ele>
        <time>2014-09-20T08:59:27Z</time>
      </trkpt>
      <trkpt lat="43.39415" lon="-0.32427">
        <ele>298</ele>
        <time>2014-09-20T08:59:31Z</time>
      </trkpt>
      <trkpt lat="43.39406" lon="-0.32427">
        <ele>298</ele>
        <time>2014-09-20T08:59:35Z</time>
      </trkpt>
      <trkpt lat="43.39399" lon="-0.32432">
        <ele>298</ele>
        <time>2014-09-20T08:59:39Z</time>
      </trkpt>
      <trkpt lat="43.39393" lon="-0.32438">
        <ele>298</ele>
        <time>2014-09-20T08:59:43Z</time>
      </trkpt>
      <trkpt lat="43.39386" lon="-0.32445">
        <ele>299</ele>
        <time>2014-09-20T08:59:47Z</time>
      </trkpt>
      <trkpt lat="43.39376" lon="-0.32449">
        <ele>299</ele>
        <time>2014-09-20T08:59:51Z</time>
      </trkpt>
      <trkpt lat="43.39368" lon="-0.32454">
        <ele>300</ele>
        <time>2014-09-20T08:59:55Z</time>
      </trkpt>
      <trkpt lat="43.39359" lon="-0.32459">
        <ele>300</ele>
        <time>2014-09-20T08:59:59Z</time>
      </trkpt>
      <trkpt lat="43.3935" lon="-0.32461">
        <ele>301</ele>
        <time>2014-09-20T09:00:03Z</time>
      </trkpt>
      <trkpt lat="43.39341" lon="-0.32469">
        <ele>301</ele>
        <time>2014-09-20T09:00:07Z</time>
      </trkpt>
      <trkpt lat="43.39333" lon="-0.32482">
        <ele>301</ele>
        <time>2014-09-20T09:00:11Z</time>
      </trkpt>
      <trkpt lat="43.39326" lon="-0.3249">
        <ele>300</ele>
        <time>2014-09-20T09:00:15Z</time>
      </trkpt>
      <trkpt lat="43.39317" lon="-0.32496">
        <ele>299</ele>
        <time>2014-09-20T09:00:19Z</time>
      </trkpt>
      <trkpt lat="43.39302" lon="-0.32495">
        <ele>298</ele>
        <time>2014-09-20T09:00:23Z</time>
      </trkpt>
      <trkpt lat="43.39284" lon="-0.3249">
        <ele>295</ele>
        <time>2014-09-20T09:00:27Z</time>
      </trkpt>
      <trkpt lat="43.39266" lon="-0.3249">
        <ele>293</ele>
        <time>2014-09-20T09:00:31Z</time>
      </trkpt>
      <trkpt lat="43.39255" lon="-0.32494">
        <ele>290</ele>
        <time>2014-09-20T09:00:35Z</time>
      </trkpt>
      <trkpt lat="43.39242" lon="-0.32496">
        <ele>287</ele>
        <time>2014-09-20T09:00:39Z</time>
      </trkpt>
      <trkpt lat="43.39228" lon="-0.32496">
        <ele>285</ele>
        <time>2014-09-20T09:00:43Z</time>
      </trkpt>
      <trkpt lat="43.39213" lon="-0.32494">
        <ele>282</ele>
        <time>2014-09-20T09:00:47Z</time>
      </trkpt>
      <trkpt lat="43.39202" lon="-0.32498">
        <ele>280</ele>
        <time>2014-09-20T09:00:51Z</time>
      </trkpt>
      <trkpt lat="43.39192" lon="-0.32503">
        <ele>278</ele>
        <time>2014-09-20T09:00:55Z</time>
      </trkpt>
      <trkpt lat="43.39179" lon="-0.32505">
        <ele>276</ele>
        <time>2014-09-20T09:00:59Z</time>
      </trkpt>
      <trkpt lat="43.39168" lon="-0.3251">
        <ele>275</ele>
        <time>2014-09-20T09:01:03Z</time>
      </trkpt>
      <trkpt lat="43.39157" lon="-0.32513">
        <ele>275</ele>
        <time>2014-09-20T09:01:07Z</time>
      </trkpt>
      <trkpt lat="43.39148" lon="-0.32517">
        <ele>275</ele>
        <time>2014-09-20T09:01:11Z</time>
      </trkpt>
      <trkpt lat="43.39138" lon="-0.32521">
        <ele>275</ele>
        <time>2014-09-20T09:01:15Z</time>
      </trkpt>
      <trkpt lat="43.39129" lon="-0.32523">
        <ele>274</ele>
        <time>2014-09-20T09:01:19Z</time>
      </trkpt>
      <trkpt lat="43.39121" lon="-0.32528">
        <ele>274</ele>
        <time>2014-09-20T09:01:23Z</time>
      </trkpt>
      <trkpt lat="43.39111" lon="-0.32534">
        <ele>274</ele>
        <time>2014-09-20T09:01:27Z</time>
      </trkpt>
      <trkpt lat="43.39103" lon="-0.32544">
        <ele>275</ele>
        <time>2014-09-20T09:01:31Z</time>
      </trkpt>
      <trkpt lat="43.39098" lon="-0.32561">
        <ele>275</ele>
        <time>2014-09-20T09:01:35Z</time>
      </trkpt>
      <trkpt lat="43.39094" lon="-0.3258">
        <ele>275</ele>
        <time>2014-09-20T09:01:39Z</time>
      </trkpt>
      <trkpt lat="43.39091" lon="-0.32596">
        <ele>275</ele>
        <time>2014-09-20T09:01:43Z</time>
      </trkpt>
      <trkpt lat="43.39089" lon="-0.32609">
        <ele>274</ele>
        <time>2014-09-20T09:01:47Z</time>
      </trkpt>
      <trkpt lat="43.39086" lon="-0.32624">
        <ele>273</ele>
        <time>2014-09-20T09:01:51Z</time>
      </trkpt>
      <trkpt lat="43.39088" lon="-0.32638">
        <ele>272</ele>
        <time>2014-09-20T09:01:55Z</time>
      </trkpt>
      <trkpt lat="43.39094" lon="-0.32647">
        <ele>271</ele>
        <time>2014-09-20T09:01:59Z</time>
      </trkpt>
      <trkpt lat="43.39102" lon="-0.32657">
        <ele>269</ele>
        <time>2014-09-20T09:02:03Z</time>
      </trkpt>
      <trkpt lat="43.39106" lon="-0.32673">
        <ele>268</ele>
        <time>2014-09-20T09:02:07Z</time>
      </trkpt>
      <trkpt lat="43.39107" lon="-0.32687">
        <ele>266</ele>
        <time>2014-09-20T09:02:11Z</time>
      </trkpt>
      <trkpt lat="43.39103" lon="-0.32702">
        <ele>265</ele>
        <time>2014-09-20T09:02:15Z</time>
      </trkpt>
      <trkpt lat="43.39101" lon="-0.32717">
        <ele>264</ele>
        <time>2014-09-20T09:02:19Z</time>
      </trkpt>
      <trkpt lat="43.39099" lon="-0.3273">
        <ele>263</ele>
        <time>2014-09-20T09:02:23Z</time>
      </trkpt>
      <trkpt lat="43.39097" lon="-0.32742">
        <ele>262</ele>
        <time>2014-09-20T09:02:27Z</time>
      </trkpt>
      <trkpt lat="43.3909" lon="-0.32753">
        <ele>260</ele>
        <time>2014-09-20T09:02:31Z</time>
      </trkpt>
      <trkpt lat="43.39081" lon="-0.32764">
        <ele>259</ele>
        <time>2014-09-20T09:02:35Z</time>
      </trkpt>
      <trkpt lat="43.39073" lon="-0.32773">
        <ele>257</ele>
        <time>2014-09-20T09:02:39Z</time>
      </trkpt>
      <trkpt lat="43.39065" lon="-0.32781">
        <ele>255</ele>
        <time>2014-09-20T09:02:43Z</time>
      </trkpt>
      <trkpt lat="43.39056" lon="-0.32786">
        <ele>253</ele>
        <time>2014-09-20T09:02:47Z</time>
      </trkpt>
      <trkpt lat="43.39048" lon="-0.32792">
        <ele>252</ele>
        <time>2014-09-20T09:02:51Z</time>
      </trkpt>
      <trkpt lat="43.3904" lon="-0.32799">
        <ele>251</ele>
        <time>2014-09-20T09:02:55Z</time>
      </trkpt>
      <trkpt lat="43.39033" lon="-0.32807">
        <ele>251</ele>
        <time>2014-09-20T09:02:59Z</time>
      </trkpt>
      <trkpt lat="43.39026" lon="-0.32815">
        <ele>250</ele>
        <time>2014-09-20T09:03:03Z</time>
      </trkpt>
      <trkpt lat="43.39021" lon="-0.32825">
        <ele>251</ele>
        <time>2014-09-20T09:03:07Z</time>
      </trkpt>
      <trkpt lat="43.39018" lon="-0.32836">
        <ele>251</ele>
        <time>2014-09-20T09:03:11Z</time>
      </trkpt>
      <trkpt lat="43.39014" lon="-0.32848">
        <ele>251</ele>
        <time>2014-09-20T09:03:15Z</time>
      </trkpt>
      <trkpt lat="43.39011" lon="-0.32859">
        <ele>252</ele>
        <time>2014-09-20T09:03:19Z</time>
      </trkpt>
      <trkpt lat="43.39006" lon="-0.32869">
        <ele>252</ele>
        <time>2014-09-20T09:03:23Z</time>
      </trkpt>
      <trkpt lat="43.39006" lon="-0.32881">
        <ele>253</ele>
        <time>2014-09-20T09:03:27Z</time>
      </trkpt>
      <trkpt lat="43.39007" lon="-0.32893">
        <ele>252</ele>
        <time>2014-09-20T09:03:31Z</time>
      </trkpt>
      <trkpt lat="43.39011" lon="-0.32902">
        <ele>251</ele>
        <time>2014-09-20T09:03:35Z</time>
      </trkpt>
      <trkpt lat="43.39013" lon="-0.3291">
        <ele>250</ele>
        <time>2014-09-20T09:03:39Z</time>
      </trkpt>
      <trkpt lat="43.39012" lon="-0.32914">
        <ele>248</ele>
        <time>2014-09-20T09:03:43Z</time>
      </trkpt>
      <trkpt lat="43.39013" lon="-0.32916">
        <ele>247</ele>
        <time>2014-09-20T09:03:47Z</time>
      </trkpt>
      <trkpt lat="43.39014" lon="-0.32917">
        <ele>247</ele>
        <time>2014-09-20T09:03:51Z</time>
      </trkpt>
      <trkpt lat="43.39014" lon="-0.32917">
        <ele>247</ele>
        <time>2014-09-20T09:03:55Z</time>
      </trkpt>
      <trkpt lat="43.39013" lon="-0.32922">
        <ele>247</ele>
        <time>2014-09-20T09:03:59Z</time>
      </trkpt>
      <trkpt lat="43.3901" lon="-0.32934">
        <ele>247</ele>
        <time>2014-09-20T09:04:03Z</time>
      </trkpt>
      <trkpt lat="43.39008" lon="-0.32941">
        <ele>247</ele>
        <time>2014-09-20T09:04:07Z</time>
      </trkpt>
      <trkpt lat="43.39006" lon="-0.32949">
        <ele>247</ele>
        <time>2014-09-20T09:04:11Z</time>
      </trkpt>
      <trkpt lat="43.39005" lon="-0.32955">
        <ele>248</ele>
        <time>2014-09-20T09:04:15Z</time>
      </trkpt>
      <trkpt lat="43.39004" lon="-0.32964">
        <ele>249</ele>
        <time>2014-09-20T09:04:18Z</time>
      </trkpt>
      <trkpt lat="43.38999" lon="-0.32976">
        <ele>251</ele>
        <time>2014-09-20T09:04:28Z</time>
      </trkpt>
      <trkpt lat="43.38998" lon="-0.32981">
        <ele>253</ele>
        <time>2014-09-20T09:04:31Z</time>
      </trkpt>
      <trkpt lat="43.38997" lon="-0.32988">
        <ele>255</ele>
        <time>2014-09-20T09:04:35Z</time>
      </trkpt>
      <trkpt lat="43.39001" lon="-0.33">
        <ele>257</ele>
        <time>2014-09-20T09:04:39Z</time>
      </trkpt>
      <trkpt lat="43.39005" lon="-0.33009">
        <ele>259</ele>
        <time>2014-09-20T09:04:43Z</time>
      </trkpt>
      <trkpt lat="43.39007" lon="-0.3302">
        <ele>260</ele>
        <time>2014-09-20T09:04:47Z</time>
      </trkpt>
      <trkpt lat="43.39005" lon="-0.3303">
        <ele>260</ele>
        <time>2014-09-20T09:04:51Z</time>
      </trkpt>
      <trkpt lat="43.39004" lon="-0.33042">
        <ele>260</ele>
        <time>2014-09-20T09:04:55Z</time>
      </trkpt>
      <trkpt lat="43.38997" lon="-0.33052">
        <ele>260</ele>
        <time>2014-09-20T09:04:59Z</time>
      </trkpt>
      <trkpt lat="43.38989" lon="-0.3306">
        <ele>262</ele>
        <time>2014-09-20T09:05:03Z</time>
      </trkpt>
      <trkpt lat="43.38978" lon="-0.33066">
        <ele>263</ele>
        <time>2014-09-20T09:05:07Z</time>
      </trkpt>
      <trkpt lat="43.3897" lon="-0.33074">
        <ele>265</ele>
        <time>2014-09-20T09:05:11Z</time>
      </trkpt>
      <trkpt lat="43.38962" lon="-0.33084">
        <ele>266</ele>
        <time>2014-09-20T09:05:15Z</time>
      </trkpt>
      <trkpt lat="43.38954" lon="-0.33092">
        <ele>268</ele>
        <time>2014-09-20T09:05:19Z</time>
      </trkpt>
      <trkpt lat="43.38945" lon="-0.33097">
        <ele>269</ele>
        <time>2014-09-20T09:05:23Z</time>
      </trkpt>
      <trkpt lat="43.38936" lon="-0.33095">
        <ele>270</ele>
        <time>2014-09-20T09:05:27Z</time>
      </trkpt>
      <trkpt lat="43.38939" lon="-0.331">
        <ele>271</ele>
        <time>2014-09-20T09:05:31Z</time>
      </trkpt>
      <trkpt lat="43.38948" lon="-0.33109">
        <ele>270</ele>
        <time>2014-09-20T09:05:35Z</time>
      </trkpt>
      <trkpt lat="43.3895" lon="-0.33113">
        <ele>269</ele>
        <time>2014-09-20T09:05:39Z</time>
      </trkpt>
      <trkpt lat="43.38947" lon="-0.33116">
        <ele>268</ele>
        <time>2014-09-20T09:05:43Z</time>
      </trkpt>
      <trkpt lat="43.38946" lon="-0.33117">
        <ele>267</ele>
        <time>2014-09-20T09:05:47Z</time>
      </trkpt>
      <trkpt lat="43.38949" lon="-0.33116">
        <ele>265</ele>
        <time>2014-09-20T09:05:51Z</time>
      </trkpt>
      <trkpt lat="43.38952" lon="-0.33115">
        <ele>263</ele>
        <time>2014-09-20T09:05:55Z</time>
      </trkpt>
      <trkpt lat="43.38955" lon="-0.33111">
        <ele>261</ele>
        <time>2014-09-20T09:05:59Z</time>
      </trkpt>
      <trkpt lat="43.38961" lon="-0.33105">
        <ele>259</ele>
        <time>2014-09-20T09:06:03Z</time>
      </trkpt>
      <trkpt lat="43.38968" lon="-0.33097">
        <ele>258</ele>
        <time>2014-09-20T09:06:07Z</time>
      </trkpt>
      <trkpt lat="43.38973" lon="-0.3309">
        <ele>257</ele>
        <time>2014-09-20T09:06:11Z</time>
      </trkpt>
      <trkpt lat="43.38979" lon="-0.33081">
        <ele>256</ele>
        <time>2014-09-20T09:06:15Z</time>
      </trkpt>
      <trkpt lat="43.38984" lon="-0.33074">
        <ele>256</ele>
        <time>2014-09-20T09:06:19Z</time>
      </trkpt>
      <trkpt lat="43.3899" lon="-0.33067">
        <ele>255</ele>
        <time>2014-09-20T09:06:23Z</time>
      </trkpt>
      <trkpt lat="43.38995" lon="-0.33059">
        <ele>254</ele>
        <time>2014-09-20T09:06:27Z</time>
      </trkpt>
      <trkpt lat="43.39" lon="-0.3305">
        <ele>253</ele>
        <time>2014-09-20T09:06:31Z</time>
      </trkpt>
      <trkpt lat="43.39003" lon="-0.33039">
        <ele>251</ele>
        <time>2014-09-20T09:06:35Z</time>
      </trkpt>
      <trkpt lat="43.39004" lon="-0.33028">
        <ele>250</ele>
        <time>2014-09-20T09:06:39Z</time>
      </trkpt>
      <trkpt lat="43.39003" lon="-0.33018">
        <ele>248</ele>
        <time>2014-09-20T09:06:43Z</time>
      </trkpt>
      <trkpt lat="43.39002" lon="-0.33011">
        <ele>247</ele>
        <time>2014-09-20T09:06:47Z</time>
      </trkpt>
      <trkpt lat="43.39002" lon="-0.33003">
        <ele>245</ele>
        <time>2014-09-20T09:06:51Z</time>
      </trkpt>
      <trkpt lat="43.39001" lon="-0.33">
        <ele>243</ele>
        <time>2014-09-20T09:06:55Z</time>
      </trkpt>
      <trkpt lat="43.38928" lon="-0.33138">
        <ele>245</ele>
        <time>2014-09-20T09:09:41Z</time>
      </trkpt>
      <trkpt lat="43.38927" lon="-0.33139">
        <ele>245</ele>
        <time>2014-09-20T09:09:43Z</time>
      </trkpt>
      <trkpt lat="43.38927" lon="-0.33143">
        <ele>245</ele>
        <time>2014-09-20T09:09:47Z</time>
      </trkpt>
      <trkpt lat="43.38927" lon="-0.33148">
        <ele>245</ele>
        <time>2014-09-20T09:09:51Z</time>
      </trkpt>
      <trkpt lat="43.38927" lon="-0.33156">
        <ele>245</ele>
        <time>2014-09-20T09:09:55Z</time>
      </trkpt>
      <trkpt lat="43.38924" lon="-0.33161">
        <ele>246</ele>
        <time>2014-09-20T09:09:59Z</time>
      </trkpt>
      <trkpt lat="43.3892" lon="-0.33164">
        <ele>246</ele>
        <time>2014-09-20T09:10:03Z</time>
      </trkpt>
      <trkpt lat="43.38917" lon="-0.33165">
        <ele>246</ele>
        <time>2014-09-20T09:10:07Z</time>
      </trkpt>
      <trkpt lat="43.38915" lon="-0.33166">
        <ele>246</ele>
        <time>2014-09-20T09:10:11Z</time>
      </trkpt>
      <trkpt lat="43.38912" lon="-0.33169">
        <ele>246</ele>
        <time>2014-09-20T09:10:15Z</time>
      </trkpt>
      <trkpt lat="43.38909" lon="-0.33171">
        <ele>246</ele>
        <time>2014-09-20T09:10:19Z</time>
      </trkpt>
      <trkpt lat="43.38902" lon="-0.33174">
        <ele>246</ele>
        <time>2014-09-20T09:10:23Z</time>
      </trkpt>
      <trkpt lat="43.38893" lon="-0.33177">
        <ele>246</ele>
        <time>2014-09-20T09:10:27Z</time>
      </trkpt>
      <trkpt lat="43.38887" lon="-0.33178">
        <ele>245</ele>
        <time>2014-09-20T09:10:31Z</time>
      </trkpt>
      <trkpt lat="43.38883" lon="-0.33182">
        <ele>245</ele>
        <time>2014-09-20T09:10:35Z</time>
      </trkpt>
      <trkpt lat="43.38878" lon="-0.33185">
        <ele>245</ele>
        <time>2014-09-20T09:10:39Z</time>
      </trkpt>
      <trkpt lat="43.38876" lon="-0.33185">
        <ele>245</ele>
        <time>2014-09-20T09:10:43Z</time>
      </trkpt>
      <trkpt lat="43.38875" lon="-0.33186">
        <ele>244</ele>
        <time>2014-09-20T09:10:47Z</time>
      </trkpt>
      <trkpt lat="43.38872" lon="-0.3319">
        <ele>244</ele>
        <time>2014-09-20T09:10:51Z</time>
      </trkpt>
      <trkpt lat="43.38868" lon="-0.33195">
        <ele>243</ele>
        <time>2014-09-20T09:10:55Z</time>
      </trkpt>
      <trkpt lat="43.38861" lon="-0.33203">
        <ele>242</ele>
        <time>2014-09-20T09:10:59Z</time>
      </trkpt>
      <trkpt lat="43.38856" lon="-0.33211">
        <ele>241</ele>
        <time>2014-09-20T09:11:03Z</time>
      </trkpt>
      <trkpt lat="43.38852" lon="-0.33219">
        <ele>240</ele>
        <time>2014-09-20T09:11:07Z</time>
      </trkpt>
      <trkpt lat="43.38851" lon="-0.33221">
        <ele>238</ele>
        <time>2014-09-20T09:11:11Z</time>
      </trkpt>
      <trkpt lat="43.3885" lon="-0.33222">
        <ele>235</ele>
        <time>2014-09-20T09:11:15Z</time>
      </trkpt>
      <trkpt lat="43.38849" lon="-0.33223">
        <ele>232</ele>
        <time>2014-09-20T09:11:19Z</time>
      </trkpt>
      <trkpt lat="43.38847" lon="-0.33225">
        <ele>230</ele>
        <time>2014-09-20T09:11:23Z</time>
      </trkpt>
      <trkpt lat="43.38845" lon="-0.33225">
        <ele>228</ele>
        <time>2014-09-20T09:11:27Z</time>
      </trkpt>
      <trkpt lat="43.38844" lon="-0.33226">
        <ele>226</ele>
        <time>2014-09-20T09:11:31Z</time>
      </trkpt>
      <trkpt lat="43.38844" lon="-0.33226">
        <ele>225</ele>
        <time>2014-09-20T09:11:35Z</time>
      </trkpt>
      <trkpt lat="43.38841" lon="-0.33227">
        <ele>225</ele>
        <time>2014-09-20T09:11:39Z</time>
      </trkpt>
      <trkpt lat="43.38836" lon="-0.33228">
        <ele>224</ele>
        <time>2014-09-20T09:11:43Z</time>
      </trkpt>
      <trkpt lat="43.38834" lon="-0.33227">
        <ele>224</ele>
        <time>2014-09-20T09:11:46Z</time>
      </trkpt>
      <trkpt lat="43.3879" lon="-0.33287">
        <ele>217</ele>
        <time>2014-09-20T09:13:03Z</time>
      </trkpt>
      <trkpt lat="43.3879" lon="-0.33287">
        <ele>217</ele>
        <time>2014-09-20T10:13:03Z</time>
      </trkpt>
      <trkpt lat="43.38789" lon="-0.3329">
        <ele>216</ele>
        <time>2014-09-20T10:13:07Z</time>
      </trkpt>
      <trkpt lat="43.38789" lon="-0.33293">
        <ele>216</ele>
        <time>2014-09-20T10:13:11Z</time>
      </trkpt>
      <trkpt lat="43.38795" lon="-0.33299">
        <ele>216</ele>
        <time>2014-09-20T10:13:15Z</time>
      </trkpt>
      <trkpt lat="43.38803" lon="-0.33309">
        <ele>215</ele>
        <time>2014-09-20T10:13:19Z</time>
      </trkpt>
      <trkpt lat="43.38812" lon="-0.33315">
        <ele>215</ele>
        <time>2014-09-20T10:13:23Z</time>
      </trkpt>
      <trkpt lat="43.3882" lon="-0.33322">
        <ele>216</ele>
        <time>2014-09-20T10:13:27Z</time>
      </trkpt>
      <trkpt lat="43.38828" lon="-0.33328">
        <ele>216</ele>
        <time>2014-09-20T10:13:31Z</time>
      </trkpt>
      <trkpt lat="43.38831" lon="-0.33337">
        <ele>217</ele>
        <time>2014-09-20T10:13:33Z</time>
      </trkpt>
      <trkpt lat="43.38832" lon="-0.33342">
        <ele>217</ele>
        <time>2014-09-20T09:13:34Z</time>
      </trkpt>
      <trkpt lat="43.38832" lon="-0.33343">
        <ele>217</ele>
        <time>2014-09-20T09:13:35Z</time>
      </trkpt>
      <trkpt lat="43.38839" lon="-0.33355">
        <ele>218</ele>
        <time>2014-09-20T09:13:39Z</time>
      </trkpt>
      <trkpt lat="43.38846" lon="-0.33362">
        <ele>218</ele>
        <time>2014-09-20T09:13:43Z</time>
      </trkpt>
      <trkpt lat="43.38852" lon="-0.33371">
        <ele>219</ele>
        <time>2014-09-20T09:13:47Z</time>
      </trkpt>
      <trkpt lat="43.38848" lon="-0.3338">
        <ele>220</ele>
        <time>2014-09-20T09:13:51Z</time>
      </trkpt>
      <trkpt lat="43.38843" lon="-0.33395">
        <ele>221</ele>
        <time>2014-09-20T09:13:55Z</time>
      </trkpt>
      <trkpt lat="43.38838" lon="-0.33406">
        <ele>221</ele>
        <time>2014-09-20T09:13:59Z</time>
      </trkpt>
      <trkpt lat="43.3883" lon="-0.33414">
        <ele>220</ele>
        <time>2014-09-20T09:14:03Z</time>
      </trkpt>
      <trkpt lat="43.38823" lon="-0.3342">
        <ele>218</ele>
        <time>2014-09-20T09:14:07Z</time>
      </trkpt>
      <trkpt lat="43.38812" lon="-0.33428">
        <ele>215</ele>
        <time>2014-09-20T09:14:11Z</time>
      </trkpt>
      <trkpt lat="43.388" lon="-0.33434">
        <ele>212</ele>
        <time>2014-09-20T09:14:15Z</time>
      </trkpt>
      <trkpt lat="43.38789" lon="-0.33441">
        <ele>209</ele>
        <time>2014-09-20T09:14:19Z</time>
      </trkpt>
      <trkpt lat="43.38781" lon="-0.33451">
        <ele>207</ele>
        <time>2014-09-20T09:14:23Z</time>
      </trkpt>
      <trkpt lat="43.38774" lon="-0.3346">
        <ele>205</ele>
        <time>2014-09-20T09:14:27Z</time>
      </trkpt>
      <trkpt lat="43.38768" lon="-0.33468">
        <ele>203</ele>
        <time>2014-09-20T09:14:31Z</time>
      </trkpt>
      <trkpt lat="43.38761" lon="-0.33477">
        <ele>202</ele>
        <time>2014-09-20T09:14:35Z</time>
      </trkpt>
      <trkpt lat="43.38757" lon="-0.33487">
        <ele>200</ele>
        <time>2014-09-20T09:14:39Z</time>
      </trkpt>
      <trkpt lat="43.38752" lon="-0.33498">
        <ele>198</ele>
        <time>2014-09-20T09:14:43Z</time>
      </trkpt>
      <trkpt lat="43.38743" lon="-0.33511">
        <ele>195</ele>
        <time>2014-09-20T09:14:47Z</time>
      </trkpt>
      <trkpt lat="43.38735" lon="-0.33524">
        <ele>192</ele>
        <time>2014-09-20T09:14:51Z</time>
      </trkpt>
      <trkpt lat="43.38733" lon="-0.33535">
        <ele>189</ele>
        <time>2014-09-20T09:14:55Z</time>
      </trkpt>
      <trkpt lat="43.38733" lon="-0.3354">
        <ele>186</ele>
        <time>2014-09-20T09:14:59Z</time>
      </trkpt>
      <trkpt lat="43.38732" lon="-0.33542">
        <ele>185</ele>
        <time>2014-09-20T09:15:03Z</time>
      </trkpt>
      <trkpt lat="43.38735" lon="-0.33548">
        <ele>184</ele>
        <time>2014-09-20T09:15:07Z</time>
      </trkpt>
      <trkpt lat="43.3874" lon="-0.33554">
        <ele>184</ele>
        <time>2014-09-20T09:15:11Z</time>
      </trkpt>
      <trkpt lat="43.38746" lon="-0.33559">
        <ele>183</ele>
        <time>2014-09-20T09:15:15Z</time>
      </trkpt>
      <trkpt lat="43.3875" lon="-0.33571">
        <ele>182</ele>
        <time>2014-09-20T09:15:19Z</time>
      </trkpt>
      <trkpt lat="43.38755" lon="-0.33589">
        <ele>182</ele>
        <time>2014-09-20T09:15:23Z</time>
      </trkpt>
      <trkpt lat="43.38759" lon="-0.33616">
        <ele>182</ele>
        <time>2014-09-20T09:15:27Z</time>
      </trkpt>
      <trkpt lat="43.3876" lon="-0.33635">
        <ele>183</ele>
        <time>2014-09-20T09:15:31Z</time>
      </trkpt>
      <trkpt lat="43.3876" lon="-0.33647">
        <ele>183</ele>
        <time>2014-09-20T09:15:35Z</time>
      </trkpt>
      <trkpt lat="43.38764" lon="-0.33657">
        <ele>183</ele>
        <time>2014-09-20T09:15:39Z</time>
      </trkpt>
      <trkpt lat="43.38767" lon="-0.33669">
        <ele>183</ele>
        <time>2014-09-20T09:15:43Z</time>
      </trkpt>
      <trkpt lat="43.3877" lon="-0.33683">
        <ele>182</ele>
        <time>2014-09-20T09:15:47Z</time>
      </trkpt>
      <trkpt lat="43.38767" lon="-0.3369">
        <ele>182</ele>
        <time>2014-09-20T09:15:51Z</time>
      </trkpt>
      <trkpt lat="43.38764" lon="-0.33699">
        <ele>183</ele>
        <time>2014-09-20T09:15:55Z</time>
      </trkpt>
      <trkpt lat="43.38762" lon="-0.33704">
        <ele>185</ele>
        <time>2014-09-20T09:15:59Z</time>
      </trkpt>
      <trkpt lat="43.38761" lon="-0.3372">
        <ele>187</ele>
        <time>2014-09-20T09:16:03Z</time>
      </trkpt>
      <trkpt lat="43.38758" lon="-0.33732">
        <ele>189</ele>
        <time>2014-09-20T09:16:07Z</time>
      </trkpt>
      <trkpt lat="43.38754" lon="-0.33743">
        <ele>190</ele>
        <time>2014-09-20T09:16:11Z</time>
      </trkpt>
      <trkpt lat="43.38751" lon="-0.33753">
        <ele>191</ele>
        <time>2014-09-20T09:16:15Z</time>
      </trkpt>
      <trkpt lat="43.38749" lon="-0.33763">
        <ele>192</ele>
        <time>2014-09-20T09:16:19Z</time>
      </trkpt>
      <trkpt lat="43.38747" lon="-0.33772">
        <ele>193</ele>
        <time>2014-09-20T09:16:23Z</time>
      </trkpt>
      <trkpt lat="43.38744" lon="-0.33779">
        <ele>195</ele>
        <time>2014-09-20T09:16:27Z</time>
      </trkpt>
      <trkpt lat="43.3874" lon="-0.33787">
        <ele>196</ele>
        <time>2014-09-20T09:16:31Z</time>
      </trkpt>
      <trkpt lat="43.38738" lon="-0.33796">
        <ele>198</ele>
        <time>2014-09-20T09:16:35Z</time>
      </trkpt>
      <trkpt lat="43.38736" lon="-0.33805">
        <ele>200</ele>
        <time>2014-09-20T09:16:39Z</time>
      </trkpt>
      <trkpt lat="43.38734" lon="-0.33816">
        <ele>203</ele>
        <time>2014-09-20T09:16:43Z</time>
      </trkpt>
      <trkpt lat="43.38733" lon="-0.33825">
        <ele>205</ele>
        <time>2014-09-20T09:16:47Z</time>
      </trkpt>
      <trkpt lat="43.38733" lon="-0.33834">
        <ele>209</ele>
        <time>2014-09-20T09:16:51Z</time>
      </trkpt>
      <trkpt lat="43.38734" lon="-0.33841">
        <ele>212</ele>
        <time>2014-09-20T09:16:55Z</time>
      </trkpt>
      <trkpt lat="43.38734" lon="-0.3385">
        <ele>215</ele>
        <time>2014-09-20T09:16:59Z</time>
      </trkpt>
      <trkpt lat="43.38736" lon="-0.33858">
        <ele>218</ele>
        <time>2014-09-20T09:17:03Z</time>
      </trkpt>
      <trkpt lat="43.38733" lon="-0.33867">
        <ele>220</ele>
        <time>2014-09-20T09:17:07Z</time>
      </trkpt>
      <trkpt lat="43.3873" lon="-0.33877">
        <ele>222</ele>
        <time>2014-09-20T09:17:11Z</time>
      </trkpt>
      <trkpt lat="43.38726" lon="-0.33886">
        <ele>224</ele>
        <time>2014-09-20T09:17:15Z</time>
      </trkpt>
      <trkpt lat="43.38724" lon="-0.33896">
        <ele>225</ele>
        <time>2014-09-20T09:17:19Z</time>
      </trkpt>
      <trkpt lat="43.38721" lon="-0.33903">
        <ele>227</ele>
        <time>2014-09-20T09:17:23Z</time>
      </trkpt>
      <trkpt lat="43.38718" lon="-0.33911">
        <ele>229</ele>
        <time>2014-09-20T09:17:27Z</time>
      </trkpt>
      <trkpt lat="43.38714" lon="-0.33918">
        <ele>232</ele>
        <time>2014-09-20T09:17:31Z</time>
      </trkpt>
      <trkpt lat="43.3871" lon="-0.33928">
        <ele>234</ele>
        <time>2014-09-20T09:17:35Z</time>
      </trkpt>
      <trkpt lat="43.38705" lon="-0.33935">
        <ele>237</ele>
        <time>2014-09-20T09:17:39Z</time>
      </trkpt>
      <trkpt lat="43.38701" lon="-0.33942">
        <ele>241</ele>
        <time>2014-09-20T09:17:43Z</time>
      </trkpt>
      <trkpt lat="43.38699" lon="-0.3395">
        <ele>245</ele>
        <time>2014-09-20T09:17:47Z</time>
      </trkpt>
      <trkpt lat="43.38697" lon="-0.33959">
        <ele>249</ele>
        <time>2014-09-20T09:17:51Z</time>
      </trkpt>
      <trkpt lat="43.38693" lon="-0.33967">
        <ele>252</ele>
        <time>2014-09-20T09:17:55Z</time>
      </trkpt>
      <trkpt lat="43.3869" lon="-0.33974">
        <ele>255</ele>
        <time>2014-09-20T09:17:59Z</time>
      </trkpt>
      <trkpt lat="43.38686" lon="-0.33981">
        <ele>256</ele>
        <time>2014-09-20T09:18:03Z</time>
      </trkpt>
      <trkpt lat="43.38682" lon="-0.33989">
        <ele>258</ele>
        <time>2014-09-20T09:18:07Z</time>
      </trkpt>
      <trkpt lat="43.3868" lon="-0.33997">
        <ele>259</ele>
        <time>2014-09-20T09:18:11Z</time>
      </trkpt>
      <trkpt lat="43.38675" lon="-0.34003">
        <ele>261</ele>
        <time>2014-09-20T09:18:15Z</time>
      </trkpt>
      <trkpt lat="43.38669" lon="-0.34007">
        <ele>263</ele>
        <time>2014-09-20T09:18:19Z</time>
      </trkpt>
      <trkpt lat="43.38664" lon="-0.34011">
        <ele>265</ele>
        <time>2014-09-20T09:18:23Z</time>
      </trkpt>
      <trkpt lat="43.3866" lon="-0.34017">
        <ele>268</ele>
        <time>2014-09-20T09:18:27Z</time>
      </trkpt>
      <trkpt lat="43.38657" lon="-0.34025">
        <ele>270</ele>
        <time>2014-09-20T09:18:31Z</time>
      </trkpt>
      <trkpt lat="43.38655" lon="-0.34035">
        <ele>272</ele>
        <time>2014-09-20T09:18:35Z</time>
      </trkpt>
      <trkpt lat="43.38656" lon="-0.34044">
        <ele>274</ele>
        <time>2014-09-20T09:18:39Z</time>
      </trkpt>
      <trkpt lat="43.38657" lon="-0.34056">
        <ele>276</ele>
        <time>2014-09-20T09:18:43Z</time>
      </trkpt>
      <trkpt lat="43.38652" lon="-0.34068">
        <ele>278</ele>
        <time>2014-09-20T09:18:47Z</time>
      </trkpt>
      <trkpt lat="43.38649" lon="-0.34079">
        <ele>280</ele>
        <time>2014-09-20T09:18:51Z</time>
      </trkpt>
      <trkpt lat="43.3865" lon="-0.34089">
        <ele>282</ele>
        <time>2014-09-20T09:18:55Z</time>
      </trkpt>
      <trkpt lat="43.38656" lon="-0.34096">
        <ele>285</ele>
        <time>2014-09-20T09:18:59Z</time>
      </trkpt>
      <trkpt lat="43.38666" lon="-0.34104">
        <ele>288</ele>
        <time>2014-09-20T09:19:03Z</time>
      </trkpt>
      <trkpt lat="43.38675" lon="-0.3411">
        <ele>292</ele>
        <time>2014-09-20T09:19:07Z</time>
      </trkpt>
      <trkpt lat="43.38682" lon="-0.34115">
        <ele>296</ele>
        <time>2014-09-20T09:19:11Z</time>
      </trkpt>
      <trkpt lat="43.38694" lon="-0.3412">
        <ele>299</ele>
        <time>2014-09-20T09:19:15Z</time>
      </trkpt>
      <trkpt lat="43.38704" lon="-0.34126">
        <ele>302</ele>
        <time>2014-09-20T09:19:19Z</time>
      </trkpt>
      <trkpt lat="43.38716" lon="-0.3413">
        <ele>305</ele>
        <time>2014-09-20T09:19:23Z</time>
      </trkpt>
      <trkpt lat="43.38728" lon="-0.34134">
        <ele>307</ele>
        <time>2014-09-20T09:19:27Z</time>
      </trkpt>
      <trkpt lat="43.38739" lon="-0.34143">
        <ele>307</ele>
        <time>2014-09-20T09:19:31Z</time>
      </trkpt>
      <trkpt lat="43.38752" lon="-0.34155">
        <ele>307</ele>
        <time>2014-09-20T09:19:35Z</time>
      </trkpt>
      <trkpt lat="43.3876" lon="-0.34162">
        <ele>305</ele>
        <time>2014-09-20T09:19:39Z</time>
      </trkpt>
      <trkpt lat="43.38767" lon="-0.34168">
        <ele>304</ele>
        <time>2014-09-20T09:19:43Z</time>
      </trkpt>
      <trkpt lat="43.38774" lon="-0.34173">
        <ele>302</ele>
        <time>2014-09-20T09:19:47Z</time>
      </trkpt>
      <trkpt lat="43.3878" lon="-0.34183">
        <ele>300</ele>
        <time>2014-09-20T09:19:51Z</time>
      </trkpt>
      <trkpt lat="43.38787" lon="-0.34191">
        <ele>298</ele>
        <time>2014-09-20T09:19:55Z</time>
      </trkpt>
      <trkpt lat="43.38793" lon="-0.342">
        <ele>296</ele>
        <time>2014-09-20T09:19:59Z</time>
      </trkpt>
      <trkpt lat="43.38799" lon="-0.34208">
        <ele>294</ele>
        <time>2014-09-20T09:20:03Z</time>
      </trkpt>
      <trkpt lat="43.38804" lon="-0.34219">
        <ele>292</ele>
        <time>2014-09-20T09:20:07Z</time>
      </trkpt>
      <trkpt lat="43.38807" lon="-0.34232">
        <ele>290</ele>
        <time>2014-09-20T09:20:11Z</time>
      </trkpt>
      <trkpt lat="43.38811" lon="-0.34243">
        <ele>287</ele>
        <time>2014-09-20T09:20:15Z</time>
      </trkpt>
      <trkpt lat="43.38814" lon="-0.34253">
        <ele>285</ele>
        <time>2014-09-20T09:20:19Z</time>
      </trkpt>
      <trkpt lat="43.38816" lon="-0.34262">
        <ele>282</ele>
        <time>2014-09-20T09:20:23Z</time>
      </trkpt>
      <trkpt lat="43.38819" lon="-0.34273">
        <ele>280</ele>
        <time>2014-09-20T09:20:27Z</time>
      </trkpt>
      <trkpt lat="43.38818" lon="-0.3429">
        <ele>278</ele>
        <time>2014-09-20T09:20:31Z</time>
      </trkpt>
      <trkpt lat="43.38816" lon="-0.34315">
        <ele>276</ele>
        <time>2014-09-20T09:20:35Z</time>
      </trkpt>
      <trkpt lat="43.38813" lon="-0.34338">
        <ele>273</ele>
        <time>2014-09-20T09:20:39Z</time>
      </trkpt>
      <trkpt lat="43.3881" lon="-0.34355">
        <ele>270</ele>
        <time>2014-09-20T09:20:43Z</time>
      </trkpt>
      <trkpt lat="43.38807" lon="-0.3437">
        <ele>268</ele>
        <time>2014-09-20T09:20:47Z</time>
      </trkpt>
      <trkpt lat="43.38805" lon="-0.34383">
        <ele>266</ele>
        <time>2014-09-20T09:20:51Z</time>
      </trkpt>
      <trkpt lat="43.38805" lon="-0.34396">
        <ele>265</ele>
        <time>2014-09-20T09:20:55Z</time>
      </trkpt>
      <trkpt lat="43.38803" lon="-0.3441">
        <ele>264</ele>
        <time>2014-09-20T09:20:59Z</time>
      </trkpt>
      <trkpt lat="43.38799" lon="-0.34421">
        <ele>264</ele>
        <time>2014-09-20T09:21:03Z</time>
      </trkpt>
      <trkpt lat="43.38801" lon="-0.34431">
        <ele>264</ele>
        <time>2014-09-20T09:21:07Z</time>
      </trkpt>
      <trkpt lat="43.38801" lon="-0.34447">
        <ele>263</ele>
        <time>2014-09-20T09:21:11Z</time>
      </trkpt>
      <trkpt lat="43.38798" lon="-0.3446">
        <ele>263</ele>
        <time>2014-09-20T09:21:15Z</time>
      </trkpt>
      <trkpt lat="43.38799" lon="-0.34474">
        <ele>263</ele>
        <time>2014-09-20T09:21:19Z</time>
      </trkpt>
      <trkpt lat="43.38801" lon="-0.34485">
        <ele>263</ele>
        <time>2014-09-20T09:21:23Z</time>
      </trkpt>
      <trkpt lat="43.38804" lon="-0.34495">
        <ele>263</ele>
        <time>2014-09-20T09:21:27Z</time>
      </trkpt>
      <trkpt lat="43.38808" lon="-0.34504">
        <ele>264</ele>
        <time>2014-09-20T09:21:31Z</time>
      </trkpt>
      <trkpt lat="43.38814" lon="-0.3451">
        <ele>266</ele>
        <time>2014-09-20T09:21:35Z</time>
      </trkpt>
      <trkpt lat="43.38822" lon="-0.34514">
        <ele>268</ele>
        <time>2014-09-20T09:21:39Z</time>
      </trkpt>
      <trkpt lat="43.38828" lon="-0.34521">
        <ele>269</ele>
        <time>2014-09-20T09:21:43Z</time>
      </trkpt>
      <trkpt lat="43.38834" lon="-0.3453">
        <ele>271</ele>
        <time>2014-09-20T09:21:47Z</time>
      </trkpt>
      <trkpt lat="43.3884" lon="-0.3454">
        <ele>272</ele>
        <time>2014-09-20T09:21:51Z</time>
      </trkpt>
      <trkpt lat="43.38845" lon="-0.34549">
        <ele>274</ele>
        <time>2014-09-20T09:21:55Z</time>
      </trkpt>
      <trkpt lat="43.38849" lon="-0.34558">
        <ele>275</ele>
        <time>2014-09-20T09:21:59Z</time>
      </trkpt>
      <trkpt lat="43.38853" lon="-0.34567">
        <ele>277</ele>
        <time>2014-09-20T09:22:03Z</time>
      </trkpt>
      <trkpt lat="43.38858" lon="-0.34575">
        <ele>278</ele>
        <time>2014-09-20T09:22:07Z</time>
      </trkpt>
      <trkpt lat="43.38862" lon="-0.34586">
        <ele>280</ele>
        <time>2014-09-20T09:22:11Z</time>
      </trkpt>
      <trkpt lat="43.38864" lon="-0.34598">
        <ele>281</ele>
        <time>2014-09-20T09:22:15Z</time>
      </trkpt>
      <trkpt lat="43.38863" lon="-0.34611">
        <ele>283</ele>
        <time>2014-09-20T09:22:19Z</time>
      </trkpt>
      <trkpt lat="43.38861" lon="-0.34622">
        <ele>284</ele>
        <time>2014-09-20T09:22:23Z</time>
      </trkpt>
      <trkpt lat="43.38861" lon="-0.34631">
        <ele>285</ele>
        <time>2014-09-20T09:22:27Z</time>
      </trkpt>
      <trkpt lat="43.38862" lon="-0.34646">
        <ele>286</ele>
        <time>2014-09-20T09:22:31Z</time>
      </trkpt>
      <trkpt lat="43.38859" lon="-0.34659">
        <ele>287</ele>
        <time>2014-09-20T09:22:35Z</time>
      </trkpt>
      <trkpt lat="43.38852" lon="-0.34673">
        <ele>287</ele>
        <time>2014-09-20T09:22:39Z</time>
      </trkpt>
      <trkpt lat="43.38848" lon="-0.34682">
        <ele>288</ele>
        <time>2014-09-20T09:22:43Z</time>
      </trkpt>
      <trkpt lat="43.38843" lon="-0.34698">
        <ele>288</ele>
        <time>2014-09-20T09:22:47Z</time>
      </trkpt>
      <trkpt lat="43.38834" lon="-0.34718">
        <ele>287</ele>
        <time>2014-09-20T09:22:51Z</time>
      </trkpt>
      <trkpt lat="43.38825" lon="-0.34733">
        <ele>286</ele>
        <time>2014-09-20T09:22:55Z</time>
      </trkpt>
      <trkpt lat="43.38818" lon="-0.34744">
        <ele>284</ele>
        <time>2014-09-20T09:22:59Z</time>
      </trkpt>
      <trkpt lat="43.38812" lon="-0.34753">
        <ele>282</ele>
        <time>2014-09-20T09:23:03Z</time>
      </trkpt>
      <trkpt lat="43.38808" lon="-0.34763">
        <ele>282</ele>
        <time>2014-09-20T09:23:07Z</time>
      </trkpt>
      <trkpt lat="43.38805" lon="-0.34772">
        <ele>281</ele>
        <time>2014-09-20T09:23:11Z</time>
      </trkpt>
      <trkpt lat="43.38803" lon="-0.34784">
        <ele>281</ele>
        <time>2014-09-20T09:23:15Z</time>
      </trkpt>
      <trkpt lat="43.38801" lon="-0.34797">
        <ele>281</ele>
        <time>2014-09-20T09:23:19Z</time>
      </trkpt>
      <trkpt lat="43.38798" lon="-0.34811">
        <ele>282</ele>
        <time>2014-09-20T09:23:23Z</time>
      </trkpt>
      <trkpt lat="43.38795" lon="-0.34824">
        <ele>282</ele>
        <time>2014-09-20T09:23:27Z</time>
      </trkpt>
      <trkpt lat="43.38794" lon="-0.34834">
        <ele>284</ele>
        <time>2014-09-20T09:23:31Z</time>
      </trkpt>
      <trkpt lat="43.38795" lon="-0.34845">
        <ele>285</ele>
        <time>2014-09-20T09:23:35Z</time>
      </trkpt>
      <trkpt lat="43.38793" lon="-0.34857">
        <ele>286</ele>
        <time>2014-09-20T09:23:39Z</time>
      </trkpt>
      <trkpt lat="43.38791" lon="-0.34867">
        <ele>287</ele>
        <time>2014-09-20T09:23:43Z</time>
      </trkpt>
      <trkpt lat="43.38784" lon="-0.34881">
        <ele>287</ele>
        <time>2014-09-20T09:23:47Z</time>
      </trkpt>
      <trkpt lat="43.38779" lon="-0.34894">
        <ele>287</ele>
        <time>2014-09-20T09:23:51Z</time>
      </trkpt>
      <trkpt lat="43.38773" lon="-0.34906">
        <ele>287</ele>
        <time>2014-09-20T09:23:55Z</time>
      </trkpt>
      <trkpt lat="43.38768" lon="-0.34917">
        <ele>288</ele>
        <time>2014-09-20T09:23:59Z</time>
      </trkpt>
      <trkpt lat="43.38764" lon="-0.34928">
        <ele>289</ele>
        <time>2014-09-20T09:24:03Z</time>
      </trkpt>
      <trkpt lat="43.38762" lon="-0.34938">
        <ele>291</ele>
        <time>2014-09-20T09:24:07Z</time>
      </trkpt>
      <trkpt lat="43.38757" lon="-0.34949">
        <ele>291</ele>
        <time>2014-09-20T09:24:11Z</time>
      </trkpt>
      <trkpt lat="43.3875" lon="-0.34955">
        <ele>292</ele>
        <time>2014-09-20T09:24:15Z</time>
      </trkpt>
      <trkpt lat="43.38742" lon="-0.34955">
        <ele>291</ele>
        <time>2014-09-20T09:24:19Z</time>
      </trkpt>
      <trkpt lat="43.38733" lon="-0.34955">
        <ele>290</ele>
        <time>2014-09-20T09:24:23Z</time>
      </trkpt>
      <trkpt lat="43.38721" lon="-0.34957">
        <ele>290</ele>
        <time>2014-09-20T09:24:27Z</time>
      </trkpt>
      <trkpt lat="43.38712" lon="-0.34965">
        <ele>289</ele>
        <time>2014-09-20T09:24:31Z</time>
      </trkpt>
      <trkpt lat="43.38706" lon="-0.34974">
        <ele>288</ele>
        <time>2014-09-20T09:24:35Z</time>
      </trkpt>
      <trkpt lat="43.38703" lon="-0.34987">
        <ele>287</ele>
        <time>2014-09-20T09:24:39Z</time>
      </trkpt>
      <trkpt lat="43.38699" lon="-0.34999">
        <ele>286</ele>
        <time>2014-09-20T09:24:43Z</time>
      </trkpt>
      <trkpt lat="43.38695" lon="-0.35011">
        <ele>286</ele>
        <time>2014-09-20T09:24:47Z</time>
      </trkpt>
      <trkpt lat="43.38692" lon="-0.35024">
        <ele>286</ele>
        <time>2014-09-20T09:24:51Z</time>
      </trkpt>
      <trkpt lat="43.38694" lon="-0.35036">
        <ele>286</ele>
        <time>2014-09-20T09:24:55Z</time>
      </trkpt>
      <trkpt lat="43.38693" lon="-0.35049">
        <ele>288</ele>
        <time>2014-09-20T09:24:59Z</time>
      </trkpt>
      <trkpt lat="43.38692" lon="-0.35063">
        <ele>288</ele>
        <time>2014-09-20T09:25:03Z</time>
      </trkpt>
      <trkpt lat="43.3869" lon="-0.35077">
        <ele>289</ele>
        <time>2014-09-20T09:25:07Z</time>
      </trkpt>
      <trkpt lat="43.38692" lon="-0.3509">
        <ele>290</ele>
        <time>2014-09-20T09:25:11Z</time>
      </trkpt>
      <trkpt lat="43.38693" lon="-0.35103">
        <ele>291</ele>
        <time>2014-09-20T09:25:15Z</time>
      </trkpt>
      <trkpt lat="43.38689" lon="-0.35114">
        <ele>293</ele>
        <time>2014-09-20T09:25:19Z</time>
      </trkpt>
      <trkpt lat="43.38687" lon="-0.35123">
        <ele>295</ele>
        <time>2014-09-20T09:25:23Z</time>
      </trkpt>
      <trkpt lat="43.38687" lon="-0.3513">
        <ele>298</ele>
        <time>2014-09-20T09:25:27Z</time>
      </trkpt>
      <trkpt lat="43.38689" lon="-0.35139">
        <ele>300</ele>
        <time>2014-09-20T09:25:31Z</time>
      </trkpt>
      <trkpt lat="43.3869" lon="-0.35147">
        <ele>302</ele>
        <time>2014-09-20T09:25:35Z</time>
      </trkpt>
      <trkpt lat="43.3869" lon="-0.35158">
        <ele>305</ele>
        <time>2014-09-20T09:25:39Z</time>
      </trkpt>
      <trkpt lat="43.3869" lon="-0.3517">
        <ele>308</ele>
        <time>2014-09-20T09:25:43Z</time>
      </trkpt>
      <trkpt lat="43.3869" lon="-0.35183">
        <ele>311</ele>
        <time>2014-09-20T09:25:47Z</time>
      </trkpt>
      <trkpt lat="43.38684" lon="-0.35197">
        <ele>314</ele>
        <time>2014-09-20T09:25:51Z</time>
      </trkpt>
      <trkpt lat="43.38677" lon="-0.35212">
        <ele>317</ele>
        <time>2014-09-20T09:25:55Z</time>
      </trkpt>
      <trkpt lat="43.38671" lon="-0.35225">
        <ele>319</ele>
        <time>2014-09-20T09:25:59Z</time>
      </trkpt>
      <trkpt lat="43.38668" lon="-0.35238">
        <ele>321</ele>
        <time>2014-09-20T09:26:03Z</time>
      </trkpt>
      <trkpt lat="43.38666" lon="-0.35253">
        <ele>323</ele>
        <time>2014-09-20T09:26:07Z</time>
      </trkpt>
      <trkpt lat="43.38667" lon="-0.35268">
        <ele>325</ele>
        <time>2014-09-20T09:26:11Z</time>
      </trkpt>
      <trkpt lat="43.38671" lon="-0.35282">
        <ele>326</ele>
        <time>2014-09-20T09:26:15Z</time>
      </trkpt>
      <trkpt lat="43.38674" lon="-0.35296">
        <ele>326</ele>
        <time>2014-09-20T09:26:19Z</time>
      </trkpt>
      <trkpt lat="43.38672" lon="-0.35317">
        <ele>325</ele>
        <time>2014-09-20T09:26:23Z</time>
      </trkpt>
      <trkpt lat="43.38673" lon="-0.35334">
        <ele>325</ele>
        <time>2014-09-20T09:26:27Z</time>
      </trkpt>
      <trkpt lat="43.38674" lon="-0.35349">
        <ele>324</ele>
        <time>2014-09-20T09:26:31Z</time>
      </trkpt>
      <trkpt lat="43.38673" lon="-0.35366">
        <ele>323</ele>
        <time>2014-09-20T09:26:35Z</time>
      </trkpt>
      <trkpt lat="43.38676" lon="-0.35378">
        <ele>323</ele>
        <time>2014-09-20T09:26:39Z</time>
      </trkpt>
      <trkpt lat="43.38681" lon="-0.35386">
        <ele>324</ele>
        <time>2014-09-20T09:26:43Z</time>
      </trkpt>
      <trkpt lat="43.38683" lon="-0.35401">
        <ele>324</ele>
        <time>2014-09-20T09:26:47Z</time>
      </trkpt>
      <trkpt lat="43.38682" lon="-0.35418">
        <ele>325</ele>
        <time>2014-09-20T09:26:51Z</time>
      </trkpt>
      <trkpt lat="43.3868" lon="-0.35434">
        <ele>325</ele>
        <time>2014-09-20T09:26:55Z</time>
      </trkpt>
      <trkpt lat="43.38679" lon="-0.35449">
        <ele>324</ele>
        <time>2014-09-20T09:26:59Z</time>
      </trkpt>
      <trkpt lat="43.38676" lon="-0.35463">
        <ele>324</ele>
        <time>2014-09-20T09:27:03Z</time>
      </trkpt>
      <trkpt lat="43.38672" lon="-0.35476">
        <ele>324</ele>
        <time>2014-09-20T09:27:07Z</time>
      </trkpt>
      <trkpt lat="43.3867" lon="-0.35492">
        <ele>324</ele>
        <time>2014-09-20T09:27:11Z</time>
      </trkpt>
      <trkpt lat="43.38668" lon="-0.35508">
        <ele>323</ele>
        <time>2014-09-20T09:27:15Z</time>
      </trkpt>
      <trkpt lat="43.38668" lon="-0.35521">
        <ele>324</ele>
        <time>2014-09-20T09:27:19Z</time>
      </trkpt>
      <trkpt lat="43.38667" lon="-0.35535">
        <ele>324</ele>
        <time>2014-09-20T09:27:23Z</time>
      </trkpt>
      <trkpt lat="43.3867" lon="-0.3555">
        <ele>325</ele>
        <time>2014-09-20T09:27:27Z</time>
      </trkpt>
      <trkpt lat="43.38674" lon="-0.35567">
        <ele>326</ele>
        <time>2014-09-20T09:27:31Z</time>
      </trkpt>
      <trkpt lat="43.38681" lon="-0.35581">
        <ele>327</ele>
        <time>2014-09-20T09:27:35Z</time>
      </trkpt>
      <trkpt lat="43.38689" lon="-0.35589">
        <ele>329</ele>
        <time>2014-09-20T09:27:39Z</time>
      </trkpt>
      <trkpt lat="43.38695" lon="-0.35599">
        <ele>330</ele>
        <time>2014-09-20T09:27:43Z</time>
      </trkpt>
      <trkpt lat="43.38698" lon="-0.3561">
        <ele>331</ele>
        <time>2014-09-20T09:27:47Z</time>
      </trkpt>
      <trkpt lat="43.38697" lon="-0.35621">
        <ele>333</ele>
        <time>2014-09-20T09:27:51Z</time>
      </trkpt>
      <trkpt lat="43.38698" lon="-0.35634">
        <ele>335</ele>
        <time>2014-09-20T09:27:55Z</time>
      </trkpt>
      <trkpt lat="43.38705" lon="-0.35646">
        <ele>336</ele>
        <time>2014-09-20T09:27:59Z</time>
      </trkpt>
      <trkpt lat="43.38717" lon="-0.35653">
        <ele>337</ele>
        <time>2014-09-20T09:28:03Z</time>
      </trkpt>
      <trkpt lat="43.38728" lon="-0.35655">
        <ele>337</ele>
        <time>2014-09-20T09:28:07Z</time>
      </trkpt>
      <trkpt lat="43.38738" lon="-0.35661">
        <ele>338</ele>
        <time>2014-09-20T09:28:11Z</time>
      </trkpt>
      <trkpt lat="43.3875" lon="-0.35667">
        <ele>338</ele>
        <time>2014-09-20T09:28:15Z</time>
      </trkpt>
      <trkpt lat="43.38761" lon="-0.35672">
        <ele>339</ele>
        <time>2014-09-20T09:28:19Z</time>
      </trkpt>
      <trkpt lat="43.38771" lon="-0.35679">
        <ele>340</ele>
        <time>2014-09-20T09:28:23Z</time>
      </trkpt>
      <trkpt lat="43.3878" lon="-0.35683">
        <ele>341</ele>
        <time>2014-09-20T09:28:27Z</time>
      </trkpt>
      <trkpt lat="43.3879" lon="-0.35692">
        <ele>342</ele>
        <time>2014-09-20T09:28:31Z</time>
      </trkpt>
      <trkpt lat="43.38798" lon="-0.357">
        <ele>343</ele>
        <time>2014-09-20T09:28:35Z</time>
      </trkpt>
      <trkpt lat="43.38808" lon="-0.35708">
        <ele>344</ele>
        <time>2014-09-20T09:28:39Z</time>
      </trkpt>
      <trkpt lat="43.38795" lon="-0.35737">
        <ele>339</ele>
        <time>2014-09-20T09:28:43Z</time>
      </trkpt>
      <trkpt lat="43.38782" lon="-0.35764">
        <ele>328</ele>
        <time>2014-09-20T09:28:47Z</time>
      </trkpt>
      <trkpt lat="43.38786" lon="-0.35779">
        <ele>315</ele>
        <time>2014-09-20T09:28:51Z</time>
      </trkpt>
      <trkpt lat="43.38793" lon="-0.35788">
        <ele>301</ele>
        <time>2014-09-20T09:28:55Z</time>
      </trkpt>
      <trkpt lat="43.38801" lon="-0.35797">
        <ele>293</ele>
        <time>2014-09-20T09:28:59Z</time>
      </trkpt>
      <trkpt lat="43.38809" lon="-0.35807">
        <ele>289</ele>
        <time>2014-09-20T09:29:03Z</time>
      </trkpt>
      <trkpt lat="43.38815" lon="-0.3582">
        <ele>287</ele>
        <time>2014-09-20T09:29:07Z</time>
      </trkpt>
      <trkpt lat="43.38821" lon="-0.35833">
        <ele>286</ele>
        <time>2014-09-20T09:29:11Z</time>
      </trkpt>
      <trkpt lat="43.38828" lon="-0.35844">
        <ele>284</ele>
        <time>2014-09-20T09:29:15Z</time>
      </trkpt>
      <trkpt lat="43.38836" lon="-0.35854">
        <ele>282</ele>
        <time>2014-09-20T09:29:19Z</time>
      </trkpt>
      <trkpt lat="43.38845" lon="-0.35865">
        <ele>281</ele>
        <time>2014-09-20T09:29:23Z</time>
      </trkpt>
      <trkpt lat="43.38854" lon="-0.35874">
        <ele>280</ele>
        <time>2014-09-20T09:29:27Z</time>
      </trkpt>
      <trkpt lat="43.38863" lon="-0.35882">
        <ele>279</ele>
        <time>2014-09-20T09:29:31Z</time>
      </trkpt>
      <trkpt lat="43.38873" lon="-0.35888">
        <ele>279</ele>
        <time>2014-09-20T09:29:35Z</time>
      </trkpt>
      <trkpt lat="43.38882" lon="-0.35896">
        <ele>278</ele>
        <time>2014-09-20T09:29:39Z</time>
      </trkpt>
      <trkpt lat="43.3889" lon="-0.35904">
        <ele>276</ele>
        <time>2014-09-20T09:29:43Z</time>
      </trkpt>
      <trkpt lat="43.38897" lon="-0.35916">
        <ele>275</ele>
        <time>2014-09-20T09:29:47Z</time>
      </trkpt>
      <trkpt lat="43.38903" lon="-0.35928">
        <ele>274</ele>
        <time>2014-09-20T09:29:51Z</time>
      </trkpt>
      <trkpt lat="43.38909" lon="-0.35941">
        <ele>274</ele>
        <time>2014-09-20T09:29:55Z</time>
      </trkpt>
      <trkpt lat="43.38916" lon="-0.35953">
        <ele>274</ele>
        <time>2014-09-20T09:29:59Z</time>
      </trkpt>
      <trkpt lat="43.38918" lon="-0.3597">
        <ele>275</ele>
        <time>2014-09-20T09:30:03Z</time>
      </trkpt>
      <trkpt lat="43.38924" lon="-0.35986">
        <ele>276</ele>
        <time>2014-09-20T09:30:07Z</time>
      </trkpt>
      <trkpt lat="43.38925" lon="-0.36003">
        <ele>277</ele>
        <time>2014-09-20T09:30:11Z</time>
      </trkpt>
      <trkpt lat="43.38923" lon="-0.3602">
        <ele>278</ele>
        <time>2014-09-20T09:30:15Z</time>
      </trkpt>
      <trkpt lat="43.3892" lon="-0.36036">
        <ele>279</ele>
        <time>2014-09-20T09:30:19Z</time>
      </trkpt>
      <trkpt lat="43.3892" lon="-0.36053">
        <ele>279</ele>
        <time>2014-09-20T09:30:23Z</time>
      </trkpt>
      <trkpt lat="43.38915" lon="-0.36071">
        <ele>280</ele>
        <time>2014-09-20T09:30:27Z</time>
      </trkpt>
      <trkpt lat="43.38912" lon="-0.36086">
        <ele>281</ele>
        <time>2014-09-20T09:30:31Z</time>
      </trkpt>
      <trkpt lat="43.38908" lon="-0.36102">
        <ele>282</ele>
        <time>2014-09-20T09:30:35Z</time>
      </trkpt>
      <trkpt lat="43.38905" lon="-0.36116">
        <ele>283</ele>
        <time>2014-09-20T09:30:39Z</time>
      </trkpt>
      <trkpt lat="43.38899" lon="-0.36129">
        <ele>283</ele>
        <time>2014-09-20T09:30:43Z</time>
      </trkpt>
      <trkpt lat="43.38893" lon="-0.36143">
        <ele>284</ele>
        <time>2014-09-20T09:30:47Z</time>
      </trkpt>
      <trkpt lat="43.38885" lon="-0.36156">
        <ele>284</ele>
        <time>2014-09-20T09:30:51Z</time>
      </trkpt>
      <trkpt lat="43.3888" lon="-0.3617">
        <ele>285</ele>
        <time>2014-09-20T09:30:55Z</time>
      </trkpt>
      <trkpt lat="43.38875" lon="-0.36188">
        <ele>285</ele>
        <time>2014-09-20T09:30:59Z</time>
      </trkpt>
      <trkpt lat="43.38867" lon="-0.36204">
        <ele>286</ele>
        <time>2014-09-20T09:31:03Z</time>
      </trkpt>
      <trkpt lat="43.38863" lon="-0.36219">
        <ele>286</ele>
        <time>2014-09-20T09:31:07Z</time>
      </trkpt>
      <trkpt lat="43.38854" lon="-0.36234">
        <ele>287</ele>
        <time>2014-09-20T09:31:11Z</time>
      </trkpt>
      <trkpt lat="43.3885" lon="-0.36249">
        <ele>288</ele>
        <time>2014-09-20T09:31:15Z</time>
      </trkpt>
      <trkpt lat="43.38848" lon="-0.36264">
        <ele>289</ele>
        <time>2014-09-20T09:31:19Z</time>
      </trkpt>
      <trkpt lat="43.38847" lon="-0.36279">
        <ele>290</ele>
        <time>2014-09-20T09:31:23Z</time>
      </trkpt>
      <trkpt lat="43.38846" lon="-0.36291">
        <ele>291</ele>
        <time>2014-09-20T09:31:27Z</time>
      </trkpt>
      <trkpt lat="43.38844" lon="-0.36293">
        <ele>291</ele>
        <time>2014-09-20T09:31:27Z</time>
      </trkpt>
      <trkpt lat="43.38846" lon="-0.3629">
        <ele>291</ele>
        <time>2014-09-20T10:31:27Z</time>
      </trkpt>
      <trkpt lat="43.38845" lon="-0.36295">
        <ele>291</ele>
        <time>2014-09-20T10:31:28Z</time>
      </trkpt>
      <trkpt lat="43.38853" lon="-0.36301">
        <ele>290</ele>
        <time>2014-09-20T09:31:37Z</time>
      </trkpt>
      <trkpt lat="43.38853" lon="-0.36302">
        <ele>290</ele>
        <time>2014-09-20T09:31:38Z</time>
      </trkpt>
    </trkseg>
  </trk>
</gpx>